<?xml version="1.0" encoding="UTF-8" standalone="no" ?>
<gpx xmlns="http://www.topografix.com/GPX/1/1" xmlns:xsi="http://www.w3.org/2001/XMLSchema-instance" xsi:schemaLocation="http://www.topografix.com/GPX/1/1 http://www.topografix.com/GPX/1/1/gpx.xsd" version="1.1" creator="VisuGPX - https://www.visugpx.com">
  <metadata>
    <name>Les Pénitents des Mées</name>
    <desc><![CDATA[Belle boucle autour des Mées]]></desc>
  </metadata>
  <trk>
    <name><![CDATA[2014-05-14 15:24:11]]></name>
    <trkseg>
      <trkpt lat="44.02911" lon="5.97558">
        <ele>416.25</ele>
        <time>2014-05-14T07:37:24Z</time>
      </trkpt>
      <trkpt lat="44.02911" lon="5.97558">
        <ele>416.25</ele>
        <time>2014-05-14T07:37:25Z</time>
      </trkpt>
      <trkpt lat="44.02911" lon="5.9756">
        <ele>416.96</ele>
        <time>2014-05-14T07:37:52Z</time>
      </trkpt>
      <trkpt lat="44.02912" lon="5.97557">
        <ele>415.25</ele>
        <time>2014-05-14T07:38:30Z</time>
      </trkpt>
      <trkpt lat="44.02912" lon="5.97553">
        <ele>415.55</ele>
        <time>2014-05-14T07:38:44Z</time>
      </trkpt>
      <trkpt lat="44.02912" lon="5.97553">
        <ele>416.29</ele>
        <time>2014-05-14T07:39:19Z</time>
      </trkpt>
      <trkpt lat="44.02912" lon="5.97543">
        <ele>415.84</ele>
        <time>2014-05-14T07:39:41Z</time>
      </trkpt>
      <trkpt lat="44.02908" lon="5.97534">
        <ele>415.85</ele>
        <time>2014-05-14T07:39:50Z</time>
      </trkpt>
      <trkpt lat="44.02875" lon="5.97531">
        <ele>414.85</ele>
        <time>2014-05-14T07:40:17Z</time>
      </trkpt>
      <trkpt lat="44.02864" lon="5.97536">
        <ele>413.96</ele>
        <time>2014-05-14T07:40:42Z</time>
      </trkpt>
      <trkpt lat="44.02848" lon="5.97528">
        <ele>412.93</ele>
        <time>2014-05-14T07:40:57Z</time>
      </trkpt>
      <trkpt lat="44.0284" lon="5.97498">
        <ele>411.84</ele>
        <time>2014-05-14T07:41:20Z</time>
      </trkpt>
      <trkpt lat="44.02839" lon="5.97492">
        <ele>411.7</ele>
        <time>2014-05-14T07:41:24Z</time>
      </trkpt>
      <trkpt lat="44.0283" lon="5.97467">
        <ele>411</ele>
        <time>2014-05-14T07:41:42Z</time>
      </trkpt>
      <trkpt lat="44.02827" lon="5.97461">
        <ele>410.64</ele>
        <time>2014-05-14T07:41:46Z</time>
      </trkpt>
      <trkpt lat="44.02824" lon="5.97456">
        <ele>410.25</ele>
        <time>2014-05-14T07:41:50Z</time>
      </trkpt>
      <trkpt lat="44.02816" lon="5.97441">
        <ele>410.6</ele>
        <time>2014-05-14T07:42:01Z</time>
      </trkpt>
      <trkpt lat="44.02808" lon="5.9743">
        <ele>410.83</ele>
        <time>2014-05-14T07:42:20Z</time>
      </trkpt>
      <trkpt lat="44.02809" lon="5.97429">
        <ele>410.26</ele>
        <time>2014-05-14T07:42:34Z</time>
      </trkpt>
      <trkpt lat="44.02807" lon="5.97431">
        <ele>410.24</ele>
        <time>2014-05-14T07:42:37Z</time>
      </trkpt>
      <trkpt lat="44.02809" lon="5.97439">
        <ele>409.6</ele>
        <time>2014-05-14T07:43:02Z</time>
      </trkpt>
      <trkpt lat="44.02816" lon="5.97449">
        <ele>409.62</ele>
        <time>2014-05-14T07:43:13Z</time>
      </trkpt>
      <trkpt lat="44.02831" lon="5.97469">
        <ele>410.19</ele>
        <time>2014-05-14T07:43:32Z</time>
      </trkpt>
      <trkpt lat="44.02831" lon="5.97477">
        <ele>410.27</ele>
        <time>2014-05-14T07:43:37Z</time>
      </trkpt>
      <trkpt lat="44.02836" lon="5.97489">
        <ele>410.54</ele>
        <time>2014-05-14T07:43:43Z</time>
      </trkpt>
      <trkpt lat="44.02839" lon="5.97492">
        <ele>410.59</ele>
        <time>2014-05-14T07:43:46Z</time>
      </trkpt>
      <trkpt lat="44.02842" lon="5.97502">
        <ele>410.57</ele>
        <time>2014-05-14T07:43:54Z</time>
      </trkpt>
      <trkpt lat="44.02843" lon="5.97506">
        <ele>410.64</ele>
        <time>2014-05-14T07:43:57Z</time>
      </trkpt>
      <trkpt lat="44.02845" lon="5.97525">
        <ele>410.83</ele>
        <time>2014-05-14T07:44:10Z</time>
      </trkpt>
      <trkpt lat="44.02856" lon="5.97535">
        <ele>412.75</ele>
        <time>2014-05-14T07:44:22Z</time>
      </trkpt>
      <trkpt lat="44.02871" lon="5.97536">
        <ele>413.96</ele>
        <time>2014-05-14T07:44:36Z</time>
      </trkpt>
      <trkpt lat="44.02878" lon="5.97538">
        <ele>414.32</ele>
        <time>2014-05-14T07:44:41Z</time>
      </trkpt>
      <trkpt lat="44.02884" lon="5.97547">
        <ele>414.93</ele>
        <time>2014-05-14T07:44:49Z</time>
      </trkpt>
      <trkpt lat="44.02884" lon="5.97567">
        <ele>414.81</ele>
        <time>2014-05-14T07:45:05Z</time>
      </trkpt>
      <trkpt lat="44.0289" lon="5.9758">
        <ele>417.16</ele>
        <time>2014-05-14T07:45:16Z</time>
      </trkpt>
      <trkpt lat="44.02894" lon="5.9759">
        <ele>416.72</ele>
        <time>2014-05-14T07:45:26Z</time>
      </trkpt>
      <trkpt lat="44.02907" lon="5.97589">
        <ele>417.24</ele>
        <time>2014-05-14T07:45:39Z</time>
      </trkpt>
      <trkpt lat="44.02912" lon="5.97585">
        <ele>417.84</ele>
        <time>2014-05-14T07:45:53Z</time>
      </trkpt>
      <trkpt lat="44.02916" lon="5.97589">
        <ele>418.11</ele>
        <time>2014-05-14T07:46:20Z</time>
      </trkpt>
      <trkpt lat="44.02921" lon="5.97596">
        <ele>418.17</ele>
        <time>2014-05-14T07:46:24Z</time>
      </trkpt>
      <trkpt lat="44.02921" lon="5.97616">
        <ele>418.96</ele>
        <time>2014-05-14T07:46:45Z</time>
      </trkpt>
      <trkpt lat="44.02917" lon="5.97628">
        <ele>420.24</ele>
        <time>2014-05-14T07:46:56Z</time>
      </trkpt>
      <trkpt lat="44.02914" lon="5.97632">
        <ele>420.8</ele>
        <time>2014-05-14T07:47:01Z</time>
      </trkpt>
      <trkpt lat="44.02902" lon="5.97668">
        <ele>422.86</ele>
        <time>2014-05-14T07:47:28Z</time>
      </trkpt>
      <trkpt lat="44.02889" lon="5.97693">
        <ele>424.34</ele>
        <time>2014-05-14T07:47:48Z</time>
      </trkpt>
      <trkpt lat="44.02881" lon="5.97714">
        <ele>426.64</ele>
        <time>2014-05-14T07:48:12Z</time>
      </trkpt>
      <trkpt lat="44.02873" lon="5.97739">
        <ele>428.81</ele>
        <time>2014-05-14T07:48:33Z</time>
      </trkpt>
      <trkpt lat="44.02868" lon="5.97749">
        <ele>429.14</ele>
        <time>2014-05-14T07:48:38Z</time>
      </trkpt>
      <trkpt lat="44.02868" lon="5.97755">
        <ele>429.63</ele>
        <time>2014-05-14T07:48:57Z</time>
      </trkpt>
      <trkpt lat="44.02866" lon="5.97754">
        <ele>429.45</ele>
        <time>2014-05-14T07:49:16Z</time>
      </trkpt>
      <trkpt lat="44.02867" lon="5.97755">
        <ele>428.69</ele>
        <time>2014-05-14T07:49:46Z</time>
      </trkpt>
      <trkpt lat="44.02858" lon="5.97781">
        <ele>430.62</ele>
        <time>2014-05-14T07:50:10Z</time>
      </trkpt>
      <trkpt lat="44.02853" lon="5.97811">
        <ele>432.04</ele>
        <time>2014-05-14T07:50:34Z</time>
      </trkpt>
      <trkpt lat="44.02847" lon="5.97844">
        <ele>434.09</ele>
        <time>2014-05-14T07:50:56Z</time>
      </trkpt>
      <trkpt lat="44.02843" lon="5.9786">
        <ele>435.26</ele>
        <time>2014-05-14T07:51:06Z</time>
      </trkpt>
      <trkpt lat="44.02843" lon="5.97863">
        <ele>435.38</ele>
        <time>2014-05-14T07:51:08Z</time>
      </trkpt>
      <trkpt lat="44.02841" lon="5.97873">
        <ele>435.69</ele>
        <time>2014-05-14T07:51:14Z</time>
      </trkpt>
      <trkpt lat="44.02842" lon="5.97886">
        <ele>436.02</ele>
        <time>2014-05-14T07:51:22Z</time>
      </trkpt>
      <trkpt lat="44.0284" lon="5.97902">
        <ele>437.29</ele>
        <time>2014-05-14T07:51:32Z</time>
      </trkpt>
      <trkpt lat="44.02841" lon="5.97924">
        <ele>438.39</ele>
        <time>2014-05-14T07:51:47Z</time>
      </trkpt>
      <trkpt lat="44.02843" lon="5.97939">
        <ele>439.49</ele>
        <time>2014-05-14T07:51:59Z</time>
      </trkpt>
      <trkpt lat="44.02842" lon="5.97957">
        <ele>440.15</ele>
        <time>2014-05-14T07:52:12Z</time>
      </trkpt>
      <trkpt lat="44.0284" lon="5.97971">
        <ele>441.04</ele>
        <time>2014-05-14T07:52:22Z</time>
      </trkpt>
      <trkpt lat="44.02842" lon="5.97987">
        <ele>441.81</ele>
        <time>2014-05-14T07:52:33Z</time>
      </trkpt>
      <trkpt lat="44.02843" lon="5.97992">
        <ele>441.66</ele>
        <time>2014-05-14T07:52:37Z</time>
      </trkpt>
      <trkpt lat="44.02846" lon="5.98001">
        <ele>441.67</ele>
        <time>2014-05-14T07:52:43Z</time>
      </trkpt>
      <trkpt lat="44.02846" lon="5.98021">
        <ele>442.13</ele>
        <time>2014-05-14T07:52:56Z</time>
      </trkpt>
      <trkpt lat="44.02847" lon="5.9804">
        <ele>443.24</ele>
        <time>2014-05-14T07:53:09Z</time>
      </trkpt>
      <trkpt lat="44.02843" lon="5.98055">
        <ele>444.74</ele>
        <time>2014-05-14T07:53:23Z</time>
      </trkpt>
      <trkpt lat="44.0284" lon="5.98057">
        <ele>445.46</ele>
        <time>2014-05-14T07:53:44Z</time>
      </trkpt>
      <trkpt lat="44.02839" lon="5.98062">
        <ele>445.06</ele>
        <time>2014-05-14T07:54:20Z</time>
      </trkpt>
      <trkpt lat="44.02834" lon="5.98081">
        <ele>447.02</ele>
        <time>2014-05-14T07:54:41Z</time>
      </trkpt>
      <trkpt lat="44.02837" lon="5.98111">
        <ele>450.02</ele>
        <time>2014-05-14T07:55:06Z</time>
      </trkpt>
      <trkpt lat="44.02839" lon="5.98132">
        <ele>452.29</ele>
        <time>2014-05-14T07:55:35Z</time>
      </trkpt>
      <trkpt lat="44.02841" lon="5.98123">
        <ele>451.71</ele>
        <time>2014-05-14T07:55:59Z</time>
      </trkpt>
      <trkpt lat="44.02838" lon="5.98116">
        <ele>451.58</ele>
        <time>2014-05-14T07:56:04Z</time>
      </trkpt>
      <trkpt lat="44.02837" lon="5.98108">
        <ele>451.27</ele>
        <time>2014-05-14T07:56:09Z</time>
      </trkpt>
      <trkpt lat="44.02833" lon="5.98076">
        <ele>448.03</ele>
        <time>2014-05-14T07:56:27Z</time>
      </trkpt>
      <trkpt lat="44.02841" lon="5.98055">
        <ele>446.09</ele>
        <time>2014-05-14T07:56:42Z</time>
      </trkpt>
      <trkpt lat="44.02844" lon="5.98032">
        <ele>444.34</ele>
        <time>2014-05-14T07:56:57Z</time>
      </trkpt>
      <trkpt lat="44.02844" lon="5.98022">
        <ele>443.45</ele>
        <time>2014-05-14T07:57:03Z</time>
      </trkpt>
      <trkpt lat="44.02845" lon="5.98015">
        <ele>443.04</ele>
        <time>2014-05-14T07:57:07Z</time>
      </trkpt>
      <trkpt lat="44.02842" lon="5.97984">
        <ele>441.63</ele>
        <time>2014-05-14T07:57:27Z</time>
      </trkpt>
      <trkpt lat="44.0284" lon="5.97962">
        <ele>440.41</ele>
        <time>2014-05-14T07:57:42Z</time>
      </trkpt>
      <trkpt lat="44.02841" lon="5.97938">
        <ele>438.57</ele>
        <time>2014-05-14T07:57:57Z</time>
      </trkpt>
      <trkpt lat="44.02842" lon="5.97935">
        <ele>438.34</ele>
        <time>2014-05-14T07:57:59Z</time>
      </trkpt>
      <trkpt lat="44.02846" lon="5.97925">
        <ele>437.54</ele>
        <time>2014-05-14T07:58:08Z</time>
      </trkpt>
      <trkpt lat="44.02852" lon="5.97925">
        <ele>437.28</ele>
        <time>2014-05-14T07:58:15Z</time>
      </trkpt>
      <trkpt lat="44.02857" lon="5.97924">
        <ele>437.26</ele>
        <time>2014-05-14T07:58:18Z</time>
      </trkpt>
      <trkpt lat="44.0286" lon="5.97923">
        <ele>437.52</ele>
        <time>2014-05-14T07:58:22Z</time>
      </trkpt>
      <trkpt lat="44.02864" lon="5.9792">
        <ele>437.95</ele>
        <time>2014-05-14T07:58:25Z</time>
      </trkpt>
      <trkpt lat="44.02865" lon="5.97916">
        <ele>438.32</ele>
        <time>2014-05-14T07:58:27Z</time>
      </trkpt>
      <trkpt lat="44.02873" lon="5.97906">
        <ele>439.87</ele>
        <time>2014-05-14T07:58:43Z</time>
      </trkpt>
      <trkpt lat="44.02878" lon="5.97902">
        <ele>441.33</ele>
        <time>2014-05-14T07:58:57Z</time>
      </trkpt>
      <trkpt lat="44.02882" lon="5.97883">
        <ele>444.36</ele>
        <time>2014-05-14T07:59:17Z</time>
      </trkpt>
      <trkpt lat="44.02885" lon="5.9787">
        <ele>447.57</ele>
        <time>2014-05-14T07:59:40Z</time>
      </trkpt>
      <trkpt lat="44.02891" lon="5.97857">
        <ele>450.06</ele>
        <time>2014-05-14T07:59:59Z</time>
      </trkpt>
      <trkpt lat="44.02891" lon="5.9786">
        <ele>452.58</ele>
        <time>2014-05-14T08:00:17Z</time>
      </trkpt>
      <trkpt lat="44.02892" lon="5.97871">
        <ele>454.56</ele>
        <time>2014-05-14T08:00:42Z</time>
      </trkpt>
      <trkpt lat="44.02899" lon="5.97865">
        <ele>457.05</ele>
        <time>2014-05-14T08:01:00Z</time>
      </trkpt>
      <trkpt lat="44.02894" lon="5.97873">
        <ele>458.96</ele>
        <time>2014-05-14T08:01:18Z</time>
      </trkpt>
      <trkpt lat="44.02895" lon="5.97874">
        <ele>459.45</ele>
        <time>2014-05-14T08:01:52Z</time>
      </trkpt>
      <trkpt lat="44.02895" lon="5.97872">
        <ele>460.41</ele>
        <time>2014-05-14T08:03:10Z</time>
      </trkpt>
      <trkpt lat="44.02894" lon="5.97871">
        <ele>460.19</ele>
        <time>2014-05-14T08:04:11Z</time>
      </trkpt>
      <trkpt lat="44.02895" lon="5.97873">
        <ele>461.69</ele>
        <time>2014-05-14T08:04:38Z</time>
      </trkpt>
      <trkpt lat="44.02898" lon="5.97868">
        <ele>459.48</ele>
        <time>2014-05-14T08:05:09Z</time>
      </trkpt>
      <trkpt lat="44.02899" lon="5.97855">
        <ele>460.26</ele>
        <time>2014-05-14T08:05:27Z</time>
      </trkpt>
      <trkpt lat="44.029" lon="5.97851">
        <ele>461.95</ele>
        <time>2014-05-14T08:05:56Z</time>
      </trkpt>
      <trkpt lat="44.02899" lon="5.9785">
        <ele>460.46</ele>
        <time>2014-05-14T08:06:23Z</time>
      </trkpt>
      <trkpt lat="44.02899" lon="5.97855">
        <ele>459.65</ele>
        <time>2014-05-14T08:06:57Z</time>
      </trkpt>
      <trkpt lat="44.02899" lon="5.97865">
        <ele>459.97</ele>
        <time>2014-05-14T08:07:12Z</time>
      </trkpt>
      <trkpt lat="44.02896" lon="5.97863">
        <ele>458.52</ele>
        <time>2014-05-14T08:07:27Z</time>
      </trkpt>
      <trkpt lat="44.02893" lon="5.97865">
        <ele>455.23</ele>
        <time>2014-05-14T08:07:40Z</time>
      </trkpt>
      <trkpt lat="44.02894" lon="5.97857">
        <ele>452.13</ele>
        <time>2014-05-14T08:07:52Z</time>
      </trkpt>
      <trkpt lat="44.02891" lon="5.97864">
        <ele>449.42</ele>
        <time>2014-05-14T08:08:07Z</time>
      </trkpt>
      <trkpt lat="44.02887" lon="5.97874">
        <ele>447.66</ele>
        <time>2014-05-14T08:08:23Z</time>
      </trkpt>
      <trkpt lat="44.02885" lon="5.97877">
        <ele>447.24</ele>
        <time>2014-05-14T08:08:26Z</time>
      </trkpt>
      <trkpt lat="44.0288" lon="5.97885">
        <ele>444.83</ele>
        <time>2014-05-14T08:08:41Z</time>
      </trkpt>
      <trkpt lat="44.02878" lon="5.97898">
        <ele>442.01</ele>
        <time>2014-05-14T08:08:56Z</time>
      </trkpt>
      <trkpt lat="44.02874" lon="5.9791">
        <ele>438.93</ele>
        <time>2014-05-14T08:09:11Z</time>
      </trkpt>
      <trkpt lat="44.02863" lon="5.97923">
        <ele>436.29</ele>
        <time>2014-05-14T08:09:32Z</time>
      </trkpt>
      <trkpt lat="44.02859" lon="5.97926">
        <ele>435.46</ele>
        <time>2014-05-14T08:09:42Z</time>
      </trkpt>
      <trkpt lat="44.02849" lon="5.97941">
        <ele>435.74</ele>
        <time>2014-05-14T08:09:59Z</time>
      </trkpt>
      <trkpt lat="44.02844" lon="5.97947">
        <ele>436.05</ele>
        <time>2014-05-14T08:10:07Z</time>
      </trkpt>
      <trkpt lat="44.02842" lon="5.97956">
        <ele>436.84</ele>
        <time>2014-05-14T08:10:22Z</time>
      </trkpt>
      <trkpt lat="44.02839" lon="5.97955">
        <ele>436.62</ele>
        <time>2014-05-14T08:10:43Z</time>
      </trkpt>
      <trkpt lat="44.02836" lon="5.97959">
        <ele>437.09</ele>
        <time>2014-05-14T08:11:23Z</time>
      </trkpt>
      <trkpt lat="44.02837" lon="5.97964">
        <ele>438.02</ele>
        <time>2014-05-14T08:11:39Z</time>
      </trkpt>
      <trkpt lat="44.02836" lon="5.97966">
        <ele>438.04</ele>
        <time>2014-05-14T08:12:20Z</time>
      </trkpt>
      <trkpt lat="44.02837" lon="5.97977">
        <ele>437.81</ele>
        <time>2014-05-14T08:12:33Z</time>
      </trkpt>
      <trkpt lat="44.02837" lon="5.97978">
        <ele>437.84</ele>
        <time>2014-05-14T08:12:34Z</time>
      </trkpt>
      <trkpt lat="44.02839" lon="5.97992">
        <ele>438.36</ele>
        <time>2014-05-14T08:12:46Z</time>
      </trkpt>
      <trkpt lat="44.02842" lon="5.98003">
        <ele>439.34</ele>
        <time>2014-05-14T08:12:54Z</time>
      </trkpt>
      <trkpt lat="44.02845" lon="5.9802">
        <ele>441.98</ele>
        <time>2014-05-14T08:13:07Z</time>
      </trkpt>
      <trkpt lat="44.02845" lon="5.98023">
        <ele>442.37</ele>
        <time>2014-05-14T08:13:09Z</time>
      </trkpt>
      <trkpt lat="44.02844" lon="5.98039">
        <ele>443.1</ele>
        <time>2014-05-14T08:13:20Z</time>
      </trkpt>
      <trkpt lat="44.02844" lon="5.98059">
        <ele>444.7</ele>
        <time>2014-05-14T08:13:42Z</time>
      </trkpt>
      <trkpt lat="44.02842" lon="5.98067">
        <ele>445.65</ele>
        <time>2014-05-14T08:14:00Z</time>
      </trkpt>
      <trkpt lat="44.02848" lon="5.98091">
        <ele>447.5</ele>
        <time>2014-05-14T08:14:20Z</time>
      </trkpt>
      <trkpt lat="44.02849" lon="5.98096">
        <ele>447.81</ele>
        <time>2014-05-14T08:14:24Z</time>
      </trkpt>
      <trkpt lat="44.02845" lon="5.98124">
        <ele>450.98</ele>
        <time>2014-05-14T08:14:45Z</time>
      </trkpt>
      <trkpt lat="44.02847" lon="5.98149">
        <ele>453.24</ele>
        <time>2014-05-14T08:15:06Z</time>
      </trkpt>
      <trkpt lat="44.02852" lon="5.98172">
        <ele>454.28</ele>
        <time>2014-05-14T08:15:27Z</time>
      </trkpt>
      <trkpt lat="44.02852" lon="5.98173">
        <ele>454.35</ele>
        <time>2014-05-14T08:15:28Z</time>
      </trkpt>
      <trkpt lat="44.02853" lon="5.98177">
        <ele>454.69</ele>
        <time>2014-05-14T08:15:32Z</time>
      </trkpt>
      <trkpt lat="44.02854" lon="5.98195">
        <ele>456.94</ele>
        <time>2014-05-14T08:15:48Z</time>
      </trkpt>
      <trkpt lat="44.02859" lon="5.98214">
        <ele>458.46</ele>
        <time>2014-05-14T08:16:01Z</time>
      </trkpt>
      <trkpt lat="44.02863" lon="5.98228">
        <ele>459.29</ele>
        <time>2014-05-14T08:16:11Z</time>
      </trkpt>
      <trkpt lat="44.02863" lon="5.98239">
        <ele>460.4</ele>
        <time>2014-05-14T08:16:19Z</time>
      </trkpt>
      <trkpt lat="44.02867" lon="5.98251">
        <ele>462.07</ele>
        <time>2014-05-14T08:16:27Z</time>
      </trkpt>
      <trkpt lat="44.02868" lon="5.98255">
        <ele>462.48</ele>
        <time>2014-05-14T08:16:30Z</time>
      </trkpt>
      <trkpt lat="44.02873" lon="5.98273">
        <ele>463.54</ele>
        <time>2014-05-14T08:16:43Z</time>
      </trkpt>
      <trkpt lat="44.02866" lon="5.98276">
        <ele>465.7</ele>
        <time>2014-05-14T08:17:04Z</time>
      </trkpt>
      <trkpt lat="44.02863" lon="5.98283">
        <ele>466.3</ele>
        <time>2014-05-14T08:17:47Z</time>
      </trkpt>
      <trkpt lat="44.02869" lon="5.98284">
        <ele>465.06</ele>
        <time>2014-05-14T08:18:08Z</time>
      </trkpt>
      <trkpt lat="44.02881" lon="5.98278">
        <ele>464.18</ele>
        <time>2014-05-14T08:18:28Z</time>
      </trkpt>
      <trkpt lat="44.02893" lon="5.98262">
        <ele>464.45</ele>
        <time>2014-05-14T08:18:43Z</time>
      </trkpt>
      <trkpt lat="44.02909" lon="5.98244">
        <ele>462.9</ele>
        <time>2014-05-14T08:19:00Z</time>
      </trkpt>
      <trkpt lat="44.0292" lon="5.98233">
        <ele>462.6</ele>
        <time>2014-05-14T08:19:13Z</time>
      </trkpt>
      <trkpt lat="44.02919" lon="5.98226">
        <ele>463.31</ele>
        <time>2014-05-14T08:19:27Z</time>
      </trkpt>
      <trkpt lat="44.02916" lon="5.98214">
        <ele>465.1</ele>
        <time>2014-05-14T08:19:42Z</time>
      </trkpt>
      <trkpt lat="44.02915" lon="5.98192">
        <ele>465.89</ele>
        <time>2014-05-14T08:19:57Z</time>
      </trkpt>
      <trkpt lat="44.02915" lon="5.98191">
        <ele>465.93</ele>
        <time>2014-05-14T08:19:58Z</time>
      </trkpt>
      <trkpt lat="44.02912" lon="5.98177">
        <ele>466.7</ele>
        <time>2014-05-14T08:20:12Z</time>
      </trkpt>
      <trkpt lat="44.02912" lon="5.98173">
        <ele>466.69</ele>
        <time>2014-05-14T08:20:16Z</time>
      </trkpt>
      <trkpt lat="44.02911" lon="5.98157">
        <ele>466.61</ele>
        <time>2014-05-14T08:20:33Z</time>
      </trkpt>
      <trkpt lat="44.02905" lon="5.98147">
        <ele>467.28</ele>
        <time>2014-05-14T08:20:46Z</time>
      </trkpt>
      <trkpt lat="44.02912" lon="5.98142">
        <ele>468.58</ele>
        <time>2014-05-14T08:21:01Z</time>
      </trkpt>
      <trkpt lat="44.02915" lon="5.98146">
        <ele>469.74</ele>
        <time>2014-05-14T08:21:09Z</time>
      </trkpt>
      <trkpt lat="44.0292" lon="5.98155">
        <ele>471.86</ele>
        <time>2014-05-14T08:21:27Z</time>
      </trkpt>
      <trkpt lat="44.02922" lon="5.98155">
        <ele>472.68</ele>
        <time>2014-05-14T08:21:40Z</time>
      </trkpt>
      <trkpt lat="44.0292" lon="5.98148">
        <ele>474.54</ele>
        <time>2014-05-14T08:21:54Z</time>
      </trkpt>
      <trkpt lat="44.02915" lon="5.98138">
        <ele>475.69</ele>
        <time>2014-05-14T08:22:09Z</time>
      </trkpt>
      <trkpt lat="44.02917" lon="5.98118">
        <ele>477.03</ele>
        <time>2014-05-14T08:22:28Z</time>
      </trkpt>
      <trkpt lat="44.02918" lon="5.98128">
        <ele>478.17</ele>
        <time>2014-05-14T08:22:40Z</time>
      </trkpt>
      <trkpt lat="44.02923" lon="5.98136">
        <ele>480.49</ele>
        <time>2014-05-14T08:22:55Z</time>
      </trkpt>
      <trkpt lat="44.02929" lon="5.98146">
        <ele>482.35</ele>
        <time>2014-05-14T08:23:12Z</time>
      </trkpt>
      <trkpt lat="44.02935" lon="5.9816">
        <ele>484.09</ele>
        <time>2014-05-14T08:23:29Z</time>
      </trkpt>
      <trkpt lat="44.02941" lon="5.98176">
        <ele>484.66</ele>
        <time>2014-05-14T08:23:45Z</time>
      </trkpt>
      <trkpt lat="44.02946" lon="5.98188">
        <ele>485.81</ele>
        <time>2014-05-14T08:24:00Z</time>
      </trkpt>
      <trkpt lat="44.02954" lon="5.98201">
        <ele>487.5</ele>
        <time>2014-05-14T08:24:19Z</time>
      </trkpt>
      <trkpt lat="44.02959" lon="5.98212">
        <ele>488.33</ele>
        <time>2014-05-14T08:24:37Z</time>
      </trkpt>
      <trkpt lat="44.02964" lon="5.98223">
        <ele>490.03</ele>
        <time>2014-05-14T08:24:54Z</time>
      </trkpt>
      <trkpt lat="44.02965" lon="5.98233">
        <ele>490.91</ele>
        <time>2014-05-14T08:25:08Z</time>
      </trkpt>
      <trkpt lat="44.02969" lon="5.98248">
        <ele>493.99</ele>
        <time>2014-05-14T08:25:26Z</time>
      </trkpt>
      <trkpt lat="44.02972" lon="5.98254">
        <ele>494.25</ele>
        <time>2014-05-14T08:25:35Z</time>
      </trkpt>
      <trkpt lat="44.02976" lon="5.98268">
        <ele>494.72</ele>
        <time>2014-05-14T08:25:51Z</time>
      </trkpt>
      <trkpt lat="44.0298" lon="5.98281">
        <ele>496.67</ele>
        <time>2014-05-14T08:26:07Z</time>
      </trkpt>
      <trkpt lat="44.02982" lon="5.98295">
        <ele>497.4</ele>
        <time>2014-05-14T08:26:22Z</time>
      </trkpt>
      <trkpt lat="44.02984" lon="5.9831">
        <ele>498.56</ele>
        <time>2014-05-14T08:26:41Z</time>
      </trkpt>
      <trkpt lat="44.02987" lon="5.98322">
        <ele>499.81</ele>
        <time>2014-05-14T08:26:57Z</time>
      </trkpt>
      <trkpt lat="44.0299" lon="5.98338">
        <ele>501.65</ele>
        <time>2014-05-14T08:27:14Z</time>
      </trkpt>
      <trkpt lat="44.02992" lon="5.98356">
        <ele>503.27</ele>
        <time>2014-05-14T08:27:33Z</time>
      </trkpt>
      <trkpt lat="44.02992" lon="5.98371">
        <ele>505.79</ele>
        <time>2014-05-14T08:27:52Z</time>
      </trkpt>
      <trkpt lat="44.02993" lon="5.98384">
        <ele>508.28</ele>
        <time>2014-05-14T08:28:08Z</time>
      </trkpt>
      <trkpt lat="44.02994" lon="5.98395">
        <ele>509.26</ele>
        <time>2014-05-14T08:28:16Z</time>
      </trkpt>
      <trkpt lat="44.02993" lon="5.9841">
        <ele>510.6</ele>
        <time>2014-05-14T08:28:31Z</time>
      </trkpt>
      <trkpt lat="44.02993" lon="5.98432">
        <ele>512.95</ele>
        <time>2014-05-14T08:28:53Z</time>
      </trkpt>
      <trkpt lat="44.02995" lon="5.98445">
        <ele>514.07</ele>
        <time>2014-05-14T08:29:08Z</time>
      </trkpt>
      <trkpt lat="44.02999" lon="5.98459">
        <ele>515.68</ele>
        <time>2014-05-14T08:29:25Z</time>
      </trkpt>
      <trkpt lat="44.02999" lon="5.9847">
        <ele>517.2</ele>
        <time>2014-05-14T08:29:40Z</time>
      </trkpt>
      <trkpt lat="44.03002" lon="5.98481">
        <ele>519.01</ele>
        <time>2014-05-14T08:29:58Z</time>
      </trkpt>
      <trkpt lat="44.03005" lon="5.98496">
        <ele>520.63</ele>
        <time>2014-05-14T08:30:13Z</time>
      </trkpt>
      <trkpt lat="44.03005" lon="5.98509">
        <ele>522.55</ele>
        <time>2014-05-14T08:30:29Z</time>
      </trkpt>
      <trkpt lat="44.03008" lon="5.98525">
        <ele>523.71</ele>
        <time>2014-05-14T08:30:48Z</time>
      </trkpt>
      <trkpt lat="44.03009" lon="5.9854">
        <ele>525.28</ele>
        <time>2014-05-14T08:31:05Z</time>
      </trkpt>
      <trkpt lat="44.0301" lon="5.98554">
        <ele>527.31</ele>
        <time>2014-05-14T08:31:21Z</time>
      </trkpt>
      <trkpt lat="44.0301" lon="5.98561">
        <ele>528.59</ele>
        <time>2014-05-14T08:31:39Z</time>
      </trkpt>
      <trkpt lat="44.03008" lon="5.98573">
        <ele>529.1</ele>
        <time>2014-05-14T08:31:56Z</time>
      </trkpt>
      <trkpt lat="44.03009" lon="5.98586">
        <ele>530.61</ele>
        <time>2014-05-14T08:32:11Z</time>
      </trkpt>
      <trkpt lat="44.03011" lon="5.98596">
        <ele>531.5</ele>
        <time>2014-05-14T08:32:24Z</time>
      </trkpt>
      <trkpt lat="44.03009" lon="5.98612">
        <ele>533.28</ele>
        <time>2014-05-14T08:32:40Z</time>
      </trkpt>
      <trkpt lat="44.0301" lon="5.98625">
        <ele>534.9</ele>
        <time>2014-05-14T08:32:57Z</time>
      </trkpt>
      <trkpt lat="44.03009" lon="5.9864">
        <ele>536.85</ele>
        <time>2014-05-14T08:33:13Z</time>
      </trkpt>
      <trkpt lat="44.03012" lon="5.9865">
        <ele>538.44</ele>
        <time>2014-05-14T08:33:29Z</time>
      </trkpt>
      <trkpt lat="44.03015" lon="5.98665">
        <ele>540.11</ele>
        <time>2014-05-14T08:33:46Z</time>
      </trkpt>
      <trkpt lat="44.03016" lon="5.98681">
        <ele>542.43</ele>
        <time>2014-05-14T08:34:04Z</time>
      </trkpt>
      <trkpt lat="44.03016" lon="5.98687">
        <ele>542.97</ele>
        <time>2014-05-14T08:34:20Z</time>
      </trkpt>
      <trkpt lat="44.03016" lon="5.98701">
        <ele>544.77</ele>
        <time>2014-05-14T08:34:38Z</time>
      </trkpt>
      <trkpt lat="44.03016" lon="5.9871">
        <ele>545.99</ele>
        <time>2014-05-14T08:34:49Z</time>
      </trkpt>
      <trkpt lat="44.03016" lon="5.98716">
        <ele>546.46</ele>
        <time>2014-05-14T08:34:55Z</time>
      </trkpt>
      <trkpt lat="44.03013" lon="5.98727">
        <ele>547.84</ele>
        <time>2014-05-14T08:35:09Z</time>
      </trkpt>
      <trkpt lat="44.03012" lon="5.98739">
        <ele>549.85</ele>
        <time>2014-05-14T08:35:21Z</time>
      </trkpt>
      <trkpt lat="44.03012" lon="5.98744">
        <ele>550.14</ele>
        <time>2014-05-14T08:35:25Z</time>
      </trkpt>
      <trkpt lat="44.03011" lon="5.98753">
        <ele>551.31</ele>
        <time>2014-05-14T08:35:37Z</time>
      </trkpt>
      <trkpt lat="44.03013" lon="5.98765">
        <ele>553.21</ele>
        <time>2014-05-14T08:35:52Z</time>
      </trkpt>
      <trkpt lat="44.03011" lon="5.98779">
        <ele>554.86</ele>
        <time>2014-05-14T08:36:10Z</time>
      </trkpt>
      <trkpt lat="44.03014" lon="5.98789">
        <ele>556.51</ele>
        <time>2014-05-14T08:36:26Z</time>
      </trkpt>
      <trkpt lat="44.03014" lon="5.988">
        <ele>557.55</ele>
        <time>2014-05-14T08:36:43Z</time>
      </trkpt>
      <trkpt lat="44.03013" lon="5.98812">
        <ele>559.22</ele>
        <time>2014-05-14T08:36:59Z</time>
      </trkpt>
      <trkpt lat="44.03014" lon="5.98827">
        <ele>561.4</ele>
        <time>2014-05-14T08:37:19Z</time>
      </trkpt>
      <trkpt lat="44.03016" lon="5.98838">
        <ele>562.86</ele>
        <time>2014-05-14T08:37:36Z</time>
      </trkpt>
      <trkpt lat="44.03015" lon="5.98847">
        <ele>564.36</ele>
        <time>2014-05-14T08:37:50Z</time>
      </trkpt>
      <trkpt lat="44.03015" lon="5.98857">
        <ele>565.99</ele>
        <time>2014-05-14T08:38:03Z</time>
      </trkpt>
      <trkpt lat="44.03018" lon="5.98866">
        <ele>567.84</ele>
        <time>2014-05-14T08:38:18Z</time>
      </trkpt>
      <trkpt lat="44.03017" lon="5.98871">
        <ele>568.45</ele>
        <time>2014-05-14T08:38:35Z</time>
      </trkpt>
      <trkpt lat="44.0302" lon="5.98877">
        <ele>569.41</ele>
        <time>2014-05-14T08:38:55Z</time>
      </trkpt>
      <trkpt lat="44.03024" lon="5.98889">
        <ele>571.51</ele>
        <time>2014-05-14T08:39:15Z</time>
      </trkpt>
      <trkpt lat="44.03024" lon="5.98902">
        <ele>572.89</ele>
        <time>2014-05-14T08:39:31Z</time>
      </trkpt>
      <trkpt lat="44.03029" lon="5.98917">
        <ele>574.54</ele>
        <time>2014-05-14T08:39:50Z</time>
      </trkpt>
      <trkpt lat="44.0303" lon="5.98932">
        <ele>576.98</ele>
        <time>2014-05-14T08:40:07Z</time>
      </trkpt>
      <trkpt lat="44.03033" lon="5.98945">
        <ele>578.78</ele>
        <time>2014-05-14T08:40:26Z</time>
      </trkpt>
      <trkpt lat="44.03035" lon="5.98959">
        <ele>580.11</ele>
        <time>2014-05-14T08:40:42Z</time>
      </trkpt>
      <trkpt lat="44.03038" lon="5.98973">
        <ele>581.61</ele>
        <time>2014-05-14T08:41:01Z</time>
      </trkpt>
      <trkpt lat="44.03044" lon="5.98986">
        <ele>583.68</ele>
        <time>2014-05-14T08:41:21Z</time>
      </trkpt>
      <trkpt lat="44.03048" lon="5.99">
        <ele>585.52</ele>
        <time>2014-05-14T08:41:37Z</time>
      </trkpt>
      <trkpt lat="44.03054" lon="5.99015">
        <ele>587.34</ele>
        <time>2014-05-14T08:41:56Z</time>
      </trkpt>
      <trkpt lat="44.03057" lon="5.9902">
        <ele>588.21</ele>
        <time>2014-05-14T08:42:13Z</time>
      </trkpt>
      <trkpt lat="44.03057" lon="5.99024">
        <ele>588.08</ele>
        <time>2014-05-14T08:42:42Z</time>
      </trkpt>
      <trkpt lat="44.03059" lon="5.99028">
        <ele>587.83</ele>
        <time>2014-05-14T08:44:04Z</time>
      </trkpt>
      <trkpt lat="44.03059" lon="5.99025">
        <ele>588.09</ele>
        <time>2014-05-14T08:44:48Z</time>
      </trkpt>
      <trkpt lat="44.03062" lon="5.99029">
        <ele>588.72</ele>
        <time>2014-05-14T08:45:06Z</time>
      </trkpt>
      <trkpt lat="44.0307" lon="5.9904">
        <ele>590.03</ele>
        <time>2014-05-14T08:45:21Z</time>
      </trkpt>
      <trkpt lat="44.0308" lon="5.99051">
        <ele>591.33</ele>
        <time>2014-05-14T08:45:38Z</time>
      </trkpt>
      <trkpt lat="44.03089" lon="5.99062">
        <ele>593.91</ele>
        <time>2014-05-14T08:45:57Z</time>
      </trkpt>
      <trkpt lat="44.031" lon="5.9907">
        <ele>595.27</ele>
        <time>2014-05-14T08:46:13Z</time>
      </trkpt>
      <trkpt lat="44.03112" lon="5.99077">
        <ele>597.17</ele>
        <time>2014-05-14T08:46:31Z</time>
      </trkpt>
      <trkpt lat="44.03121" lon="5.99079">
        <ele>598.45</ele>
        <time>2014-05-14T08:46:44Z</time>
      </trkpt>
      <trkpt lat="44.03129" lon="5.99082">
        <ele>600.65</ele>
        <time>2014-05-14T08:47:05Z</time>
      </trkpt>
      <trkpt lat="44.03132" lon="5.99084">
        <ele>601.21</ele>
        <time>2014-05-14T08:47:27Z</time>
      </trkpt>
      <trkpt lat="44.03137" lon="5.99088">
        <ele>600.93</ele>
        <time>2014-05-14T08:48:07Z</time>
      </trkpt>
      <trkpt lat="44.03138" lon="5.99092">
        <ele>601.47</ele>
        <time>2014-05-14T08:48:27Z</time>
      </trkpt>
      <trkpt lat="44.03138" lon="5.99095">
        <ele>600.88</ele>
        <time>2014-05-14T08:49:31Z</time>
      </trkpt>
      <trkpt lat="44.03139" lon="5.99095">
        <ele>600.42</ele>
        <time>2014-05-14T08:49:52Z</time>
      </trkpt>
      <trkpt lat="44.03138" lon="5.9909">
        <ele>600.64</ele>
        <time>2014-05-14T08:50:53Z</time>
      </trkpt>
      <trkpt lat="44.03137" lon="5.99092">
        <ele>600.77</ele>
        <time>2014-05-14T08:53:31Z</time>
      </trkpt>
      <trkpt lat="44.03138" lon="5.99092">
        <ele>601.13</ele>
        <time>2014-05-14T08:53:56Z</time>
      </trkpt>
      <trkpt lat="44.03143" lon="5.99094">
        <ele>600.73</ele>
        <time>2014-05-14T08:54:15Z</time>
      </trkpt>
      <trkpt lat="44.03139" lon="5.991">
        <ele>600.68</ele>
        <time>2014-05-14T08:54:31Z</time>
      </trkpt>
      <trkpt lat="44.03141" lon="5.99095">
        <ele>600.94</ele>
        <time>2014-05-14T08:55:16Z</time>
      </trkpt>
      <trkpt lat="44.03142" lon="5.99093">
        <ele>601.53</ele>
        <time>2014-05-14T08:55:32Z</time>
      </trkpt>
      <trkpt lat="44.03144" lon="5.99093">
        <ele>601.58</ele>
        <time>2014-05-14T08:56:04Z</time>
      </trkpt>
      <trkpt lat="44.03147" lon="5.99097">
        <ele>600.5</ele>
        <time>2014-05-14T08:56:46Z</time>
      </trkpt>
      <trkpt lat="44.03147" lon="5.99096">
        <ele>600.11</ele>
        <time>2014-05-14T08:57:25Z</time>
      </trkpt>
      <trkpt lat="44.0315" lon="5.99102">
        <ele>600.15</ele>
        <time>2014-05-14T08:57:49Z</time>
      </trkpt>
      <trkpt lat="44.03153" lon="5.99111">
        <ele>600.28</ele>
        <time>2014-05-14T08:58:03Z</time>
      </trkpt>
      <trkpt lat="44.03155" lon="5.99122">
        <ele>602.62</ele>
        <time>2014-05-14T08:58:18Z</time>
      </trkpt>
      <trkpt lat="44.03156" lon="5.99133">
        <ele>605.49</ele>
        <time>2014-05-14T08:58:35Z</time>
      </trkpt>
      <trkpt lat="44.03159" lon="5.9914">
        <ele>606.32</ele>
        <time>2014-05-14T08:59:09Z</time>
      </trkpt>
      <trkpt lat="44.03161" lon="5.99159">
        <ele>608.52</ele>
        <time>2014-05-14T08:59:27Z</time>
      </trkpt>
      <trkpt lat="44.03163" lon="5.99176">
        <ele>610.91</ele>
        <time>2014-05-14T08:59:48Z</time>
      </trkpt>
      <trkpt lat="44.03163" lon="5.99176">
        <ele>611.4</ele>
        <time>2014-05-14T09:00:10Z</time>
      </trkpt>
      <trkpt lat="44.03163" lon="5.99176">
        <ele>611.15</ele>
        <time>2014-05-14T09:00:50Z</time>
      </trkpt>
      <trkpt lat="44.03163" lon="5.99177">
        <ele>611.68</ele>
        <time>2014-05-14T09:01:22Z</time>
      </trkpt>
      <trkpt lat="44.03165" lon="5.99184">
        <ele>611.67</ele>
        <time>2014-05-14T09:02:07Z</time>
      </trkpt>
      <trkpt lat="44.03168" lon="5.99201">
        <ele>612.99</ele>
        <time>2014-05-14T09:02:22Z</time>
      </trkpt>
      <trkpt lat="44.03169" lon="5.99213">
        <ele>614.1</ele>
        <time>2014-05-14T09:02:32Z</time>
      </trkpt>
      <trkpt lat="44.03168" lon="5.99231">
        <ele>614.17</ele>
        <time>2014-05-14T09:02:45Z</time>
      </trkpt>
      <trkpt lat="44.03163" lon="5.99251">
        <ele>614.97</ele>
        <time>2014-05-14T09:03:03Z</time>
      </trkpt>
      <trkpt lat="44.0316" lon="5.99262">
        <ele>616.74</ele>
        <time>2014-05-14T09:03:20Z</time>
      </trkpt>
      <trkpt lat="44.03158" lon="5.99271">
        <ele>619.57</ele>
        <time>2014-05-14T09:03:38Z</time>
      </trkpt>
      <trkpt lat="44.03158" lon="5.9928">
        <ele>621.4</ele>
        <time>2014-05-14T09:03:55Z</time>
      </trkpt>
      <trkpt lat="44.03153" lon="5.99293">
        <ele>624.39</ele>
        <time>2014-05-14T09:04:16Z</time>
      </trkpt>
      <trkpt lat="44.03147" lon="5.99302">
        <ele>626.86</ele>
        <time>2014-05-14T09:04:35Z</time>
      </trkpt>
      <trkpt lat="44.0314" lon="5.99306">
        <ele>629.89</ele>
        <time>2014-05-14T09:04:53Z</time>
      </trkpt>
      <trkpt lat="44.03134" lon="5.99307">
        <ele>631.6</ele>
        <time>2014-05-14T09:05:10Z</time>
      </trkpt>
      <trkpt lat="44.03127" lon="5.99311">
        <ele>634.58</ele>
        <time>2014-05-14T09:05:29Z</time>
      </trkpt>
      <trkpt lat="44.0312" lon="5.99314">
        <ele>637.76</ele>
        <time>2014-05-14T09:05:50Z</time>
      </trkpt>
      <trkpt lat="44.03124" lon="5.99324">
        <ele>640.03</ele>
        <time>2014-05-14T09:06:11Z</time>
      </trkpt>
      <trkpt lat="44.03126" lon="5.99331">
        <ele>641.93</ele>
        <time>2014-05-14T09:06:29Z</time>
      </trkpt>
      <trkpt lat="44.03125" lon="5.99334">
        <ele>643.85</ele>
        <time>2014-05-14T09:06:54Z</time>
      </trkpt>
      <trkpt lat="44.03127" lon="5.99334">
        <ele>643.01</ele>
        <time>2014-05-14T09:07:25Z</time>
      </trkpt>
      <trkpt lat="44.03129" lon="5.99337">
        <ele>643.45</ele>
        <time>2014-05-14T09:08:08Z</time>
      </trkpt>
      <trkpt lat="44.03129" lon="5.99336">
        <ele>642.81</ele>
        <time>2014-05-14T09:08:55Z</time>
      </trkpt>
      <trkpt lat="44.0313" lon="5.9934">
        <ele>643.39</ele>
        <time>2014-05-14T09:09:30Z</time>
      </trkpt>
      <trkpt lat="44.03132" lon="5.99347">
        <ele>645.88</ele>
        <time>2014-05-14T09:09:46Z</time>
      </trkpt>
      <trkpt lat="44.03132" lon="5.99355">
        <ele>647.46</ele>
        <time>2014-05-14T09:10:04Z</time>
      </trkpt>
      <trkpt lat="44.03133" lon="5.99364">
        <ele>650.47</ele>
        <time>2014-05-14T09:10:21Z</time>
      </trkpt>
      <trkpt lat="44.03136" lon="5.99373">
        <ele>652.54</ele>
        <time>2014-05-14T09:10:37Z</time>
      </trkpt>
      <trkpt lat="44.03136" lon="5.99383">
        <ele>654.95</ele>
        <time>2014-05-14T09:10:58Z</time>
      </trkpt>
      <trkpt lat="44.03141" lon="5.9939">
        <ele>657.65</ele>
        <time>2014-05-14T09:11:15Z</time>
      </trkpt>
      <trkpt lat="44.03143" lon="5.994">
        <ele>659.69</ele>
        <time>2014-05-14T09:11:35Z</time>
      </trkpt>
      <trkpt lat="44.03146" lon="5.99408">
        <ele>661.94</ele>
        <time>2014-05-14T09:11:52Z</time>
      </trkpt>
      <trkpt lat="44.03147" lon="5.99415">
        <ele>663.73</ele>
        <time>2014-05-14T09:12:13Z</time>
      </trkpt>
      <trkpt lat="44.03148" lon="5.99417">
        <ele>663.16</ele>
        <time>2014-05-14T09:12:35Z</time>
      </trkpt>
      <trkpt lat="44.03148" lon="5.99419">
        <ele>662.49</ele>
        <time>2014-05-14T09:13:26Z</time>
      </trkpt>
      <trkpt lat="44.03148" lon="5.99419">
        <ele>662.74</ele>
        <time>2014-05-14T09:14:02Z</time>
      </trkpt>
      <trkpt lat="44.03148" lon="5.99419">
        <ele>662.25</ele>
        <time>2014-05-14T09:15:06Z</time>
      </trkpt>
      <trkpt lat="44.03148" lon="5.99422">
        <ele>662.42</ele>
        <time>2014-05-14T09:15:29Z</time>
      </trkpt>
      <trkpt lat="44.03149" lon="5.99426">
        <ele>663.22</ele>
        <time>2014-05-14T09:15:48Z</time>
      </trkpt>
      <trkpt lat="44.0315" lon="5.99443">
        <ele>663.61</ele>
        <time>2014-05-14T09:16:07Z</time>
      </trkpt>
      <trkpt lat="44.0315" lon="5.99457">
        <ele>665.37</ele>
        <time>2014-05-14T09:16:23Z</time>
      </trkpt>
      <trkpt lat="44.03151" lon="5.9947">
        <ele>666.73</ele>
        <time>2014-05-14T09:16:36Z</time>
      </trkpt>
      <trkpt lat="44.03152" lon="5.9949">
        <ele>668.06</ele>
        <time>2014-05-14T09:16:51Z</time>
      </trkpt>
      <trkpt lat="44.03153" lon="5.99517">
        <ele>670.06</ele>
        <time>2014-05-14T09:17:11Z</time>
      </trkpt>
      <trkpt lat="44.03153" lon="5.99538">
        <ele>671.87</ele>
        <time>2014-05-14T09:17:28Z</time>
      </trkpt>
      <trkpt lat="44.03152" lon="5.99559">
        <ele>673.48</ele>
        <time>2014-05-14T09:17:42Z</time>
      </trkpt>
      <trkpt lat="44.03152" lon="5.99579">
        <ele>673.11</ele>
        <time>2014-05-14T09:17:55Z</time>
      </trkpt>
      <trkpt lat="44.03154" lon="5.99603">
        <ele>672.74</ele>
        <time>2014-05-14T09:18:11Z</time>
      </trkpt>
      <trkpt lat="44.03157" lon="5.99626">
        <ele>673.34</ele>
        <time>2014-05-14T09:18:29Z</time>
      </trkpt>
      <trkpt lat="44.0316" lon="5.99646">
        <ele>674.7</ele>
        <time>2014-05-14T09:18:44Z</time>
      </trkpt>
      <trkpt lat="44.03164" lon="5.99661">
        <ele>676.12</ele>
        <time>2014-05-14T09:18:58Z</time>
      </trkpt>
      <trkpt lat="44.03168" lon="5.99681">
        <ele>675.74</ele>
        <time>2014-05-14T09:19:12Z</time>
      </trkpt>
      <trkpt lat="44.0317" lon="5.99705">
        <ele>675.63</ele>
        <time>2014-05-14T09:19:26Z</time>
      </trkpt>
      <trkpt lat="44.03172" lon="5.9973">
        <ele>677.25</ele>
        <time>2014-05-14T09:19:44Z</time>
      </trkpt>
      <trkpt lat="44.03171" lon="5.99744">
        <ele>679.61</ele>
        <time>2014-05-14T09:20:03Z</time>
      </trkpt>
      <trkpt lat="44.03173" lon="5.9976">
        <ele>680.21</ele>
        <time>2014-05-14T09:20:21Z</time>
      </trkpt>
      <trkpt lat="44.03176" lon="5.99776">
        <ele>681.31</ele>
        <time>2014-05-14T09:20:38Z</time>
      </trkpt>
      <trkpt lat="44.0318" lon="5.99794">
        <ele>683.87</ele>
        <time>2014-05-14T09:20:57Z</time>
      </trkpt>
      <trkpt lat="44.03181" lon="5.99798">
        <ele>684.18</ele>
        <time>2014-05-14T09:21:01Z</time>
      </trkpt>
      <trkpt lat="44.03186" lon="5.99815">
        <ele>684.24</ele>
        <time>2014-05-14T09:21:16Z</time>
      </trkpt>
      <trkpt lat="44.03192" lon="5.9983">
        <ele>683.16</ele>
        <time>2014-05-14T09:21:30Z</time>
      </trkpt>
      <trkpt lat="44.03198" lon="5.99851">
        <ele>683.39</ele>
        <time>2014-05-14T09:21:45Z</time>
      </trkpt>
      <trkpt lat="44.03203" lon="5.99872">
        <ele>684.65</ele>
        <time>2014-05-14T09:22:03Z</time>
      </trkpt>
      <trkpt lat="44.03204" lon="5.9989">
        <ele>686.66</ele>
        <time>2014-05-14T09:22:20Z</time>
      </trkpt>
      <trkpt lat="44.03203" lon="5.99906">
        <ele>689.03</ele>
        <time>2014-05-14T09:22:38Z</time>
      </trkpt>
      <trkpt lat="44.03202" lon="5.9992">
        <ele>691.44</ele>
        <time>2014-05-14T09:22:56Z</time>
      </trkpt>
      <trkpt lat="44.032" lon="5.99936">
        <ele>693.97</ele>
        <time>2014-05-14T09:23:16Z</time>
      </trkpt>
      <trkpt lat="44.03198" lon="5.9995">
        <ele>696.39</ele>
        <time>2014-05-14T09:23:35Z</time>
      </trkpt>
      <trkpt lat="44.03201" lon="5.99961">
        <ele>699.54</ele>
        <time>2014-05-14T09:23:48Z</time>
      </trkpt>
      <trkpt lat="44.03204" lon="5.99975">
        <ele>701.36</ele>
        <time>2014-05-14T09:24:03Z</time>
      </trkpt>
      <trkpt lat="44.03208" lon="5.99995">
        <ele>703.55</ele>
        <time>2014-05-14T09:24:23Z</time>
      </trkpt>
      <trkpt lat="44.03209" lon="6.00013">
        <ele>705.87</ele>
        <time>2014-05-14T09:24:43Z</time>
      </trkpt>
      <trkpt lat="44.03211" lon="6.00029">
        <ele>707.38</ele>
        <time>2014-05-14T09:24:57Z</time>
      </trkpt>
      <trkpt lat="44.03215" lon="6.00045">
        <ele>707.7</ele>
        <time>2014-05-14T09:25:11Z</time>
      </trkpt>
      <trkpt lat="44.03221" lon="6.00063">
        <ele>708.89</ele>
        <time>2014-05-14T09:25:25Z</time>
      </trkpt>
      <trkpt lat="44.03226" lon="6.0008">
        <ele>711.12</ele>
        <time>2014-05-14T09:25:41Z</time>
      </trkpt>
      <trkpt lat="44.03227" lon="6.001">
        <ele>713.23</ele>
        <time>2014-05-14T09:25:58Z</time>
      </trkpt>
      <trkpt lat="44.0323" lon="6.00117">
        <ele>715</ele>
        <time>2014-05-14T09:26:15Z</time>
      </trkpt>
      <trkpt lat="44.03232" lon="6.00133">
        <ele>717.59</ele>
        <time>2014-05-14T09:26:34Z</time>
      </trkpt>
      <trkpt lat="44.03236" lon="6.00143">
        <ele>718.56</ele>
        <time>2014-05-14T09:26:52Z</time>
      </trkpt>
      <trkpt lat="44.03238" lon="6.00145">
        <ele>718.85</ele>
        <time>2014-05-14T09:27:15Z</time>
      </trkpt>
      <trkpt lat="44.03239" lon="6.00146">
        <ele>718.6</ele>
        <time>2014-05-14T09:27:43Z</time>
      </trkpt>
      <trkpt lat="44.03236" lon="6.00146">
        <ele>717.87</ele>
        <time>2014-05-14T09:28:16Z</time>
      </trkpt>
      <trkpt lat="44.03234" lon="6.00148">
        <ele>717.46</ele>
        <time>2014-05-14T09:29:34Z</time>
      </trkpt>
      <trkpt lat="44.03238" lon="6.00147">
        <ele>717.68</ele>
        <time>2014-05-14T09:31:12Z</time>
      </trkpt>
      <trkpt lat="44.03244" lon="6.00147">
        <ele>718.52</ele>
        <time>2014-05-14T09:31:59Z</time>
      </trkpt>
      <trkpt lat="44.03236" lon="6.00153">
        <ele>718.58</ele>
        <time>2014-05-14T09:32:26Z</time>
      </trkpt>
      <trkpt lat="44.03224" lon="6.00178">
        <ele>716.17</ele>
        <time>2014-05-14T09:32:54Z</time>
      </trkpt>
      <trkpt lat="44.03199" lon="6.00201">
        <ele>715.86</ele>
        <time>2014-05-14T09:33:20Z</time>
      </trkpt>
      <trkpt lat="44.03193" lon="6.00239">
        <ele>715.39</ele>
        <time>2014-05-14T09:33:50Z</time>
      </trkpt>
      <trkpt lat="44.03189" lon="6.00267">
        <ele>718.5</ele>
        <time>2014-05-14T09:34:15Z</time>
      </trkpt>
      <trkpt lat="44.0319" lon="6.00284">
        <ele>721.56</ele>
        <time>2014-05-14T09:34:36Z</time>
      </trkpt>
      <trkpt lat="44.03198" lon="6.00299">
        <ele>724.59</ele>
        <time>2014-05-14T09:34:58Z</time>
      </trkpt>
      <trkpt lat="44.03202" lon="6.00331">
        <ele>727.29</ele>
        <time>2014-05-14T09:35:26Z</time>
      </trkpt>
      <trkpt lat="44.03204" lon="6.0036">
        <ele>727.86</ele>
        <time>2014-05-14T09:35:51Z</time>
      </trkpt>
      <trkpt lat="44.03204" lon="6.00374">
        <ele>728.4</ele>
        <time>2014-05-14T09:36:00Z</time>
      </trkpt>
      <trkpt lat="44.03202" lon="6.00412">
        <ele>729.8</ele>
        <time>2014-05-14T09:36:29Z</time>
      </trkpt>
      <trkpt lat="44.03193" lon="6.00451">
        <ele>730.27</ele>
        <time>2014-05-14T09:36:56Z</time>
      </trkpt>
      <trkpt lat="44.03177" lon="6.00485">
        <ele>730.07</ele>
        <time>2014-05-14T09:37:25Z</time>
      </trkpt>
      <trkpt lat="44.03168" lon="6.00523">
        <ele>727.72</ele>
        <time>2014-05-14T09:37:53Z</time>
      </trkpt>
      <trkpt lat="44.03168" lon="6.00567">
        <ele>727.05</ele>
        <time>2014-05-14T09:38:19Z</time>
      </trkpt>
      <trkpt lat="44.03154" lon="6.00609">
        <ele>724.93</ele>
        <time>2014-05-14T09:38:51Z</time>
      </trkpt>
      <trkpt lat="44.03144" lon="6.0063">
        <ele>722.83</ele>
        <time>2014-05-14T09:39:14Z</time>
      </trkpt>
      <trkpt lat="44.03141" lon="6.00668">
        <ele>720.87</ele>
        <time>2014-05-14T09:39:42Z</time>
      </trkpt>
      <trkpt lat="44.03137" lon="6.00702">
        <ele>719.8</ele>
        <time>2014-05-14T09:40:05Z</time>
      </trkpt>
      <trkpt lat="44.03129" lon="6.00742">
        <ele>720.6</ele>
        <time>2014-05-14T09:40:33Z</time>
      </trkpt>
      <trkpt lat="44.03116" lon="6.00771">
        <ele>723.11</ele>
        <time>2014-05-14T09:41:00Z</time>
      </trkpt>
      <trkpt lat="44.03101" lon="6.00801">
        <ele>726.16</ele>
        <time>2014-05-14T09:41:28Z</time>
      </trkpt>
      <trkpt lat="44.03102" lon="6.0081">
        <ele>726.59</ele>
        <time>2014-05-14T09:41:43Z</time>
      </trkpt>
      <trkpt lat="44.03107" lon="6.00829">
        <ele>726.45</ele>
        <time>2014-05-14T09:42:11Z</time>
      </trkpt>
      <trkpt lat="44.03115" lon="6.00844">
        <ele>726.69</ele>
        <time>2014-05-14T09:42:34Z</time>
      </trkpt>
      <trkpt lat="44.03123" lon="6.0087">
        <ele>725.34</ele>
        <time>2014-05-14T09:42:59Z</time>
      </trkpt>
      <trkpt lat="44.03127" lon="6.00891">
        <ele>723.37</ele>
        <time>2014-05-14T09:43:20Z</time>
      </trkpt>
      <trkpt lat="44.03131" lon="6.00902">
        <ele>723.4</ele>
        <time>2014-05-14T09:43:39Z</time>
      </trkpt>
      <trkpt lat="44.03134" lon="6.00916">
        <ele>723.13</ele>
        <time>2014-05-14T09:44:16Z</time>
      </trkpt>
      <trkpt lat="44.03134" lon="6.00907">
        <ele>723.75</ele>
        <time>2014-05-14T09:45:01Z</time>
      </trkpt>
      <trkpt lat="44.03133" lon="6.00906">
        <ele>723.89</ele>
        <time>2014-05-14T09:45:21Z</time>
      </trkpt>
      <trkpt lat="44.03133" lon="6.00905">
        <ele>723.74</ele>
        <time>2014-05-14T09:45:53Z</time>
      </trkpt>
      <trkpt lat="44.03133" lon="6.009">
        <ele>723.11</ele>
        <time>2014-05-14T09:46:37Z</time>
      </trkpt>
      <trkpt lat="44.03136" lon="6.00899">
        <ele>723.28</ele>
        <time>2014-05-14T09:47:06Z</time>
      </trkpt>
      <trkpt lat="44.03136" lon="6.00896">
        <ele>722.97</ele>
        <time>2014-05-14T09:47:25Z</time>
      </trkpt>
      <trkpt lat="44.03138" lon="6.00898">
        <ele>722.83</ele>
        <time>2014-05-14T09:47:43Z</time>
      </trkpt>
      <trkpt lat="44.03133" lon="6.00899">
        <ele>723.51</ele>
        <time>2014-05-14T09:48:15Z</time>
      </trkpt>
      <trkpt lat="44.03132" lon="6.00904">
        <ele>723.25</ele>
        <time>2014-05-14T09:48:22Z</time>
      </trkpt>
      <trkpt lat="44.03131" lon="6.00908">
        <ele>723.3</ele>
        <time>2014-05-14T09:48:26Z</time>
      </trkpt>
      <trkpt lat="44.03137" lon="6.00928">
        <ele>724.51</ele>
        <time>2014-05-14T09:48:46Z</time>
      </trkpt>
      <trkpt lat="44.03145" lon="6.00956">
        <ele>727.82</ele>
        <time>2014-05-14T09:49:11Z</time>
      </trkpt>
      <trkpt lat="44.03141" lon="6.00982">
        <ele>730.98</ele>
        <time>2014-05-14T09:49:35Z</time>
      </trkpt>
      <trkpt lat="44.03128" lon="6.00991">
        <ele>733.09</ele>
        <time>2014-05-14T09:49:55Z</time>
      </trkpt>
      <trkpt lat="44.03111" lon="6.00999">
        <ele>735.52</ele>
        <time>2014-05-14T09:50:15Z</time>
      </trkpt>
      <trkpt lat="44.03095" lon="6.01011">
        <ele>738.15</ele>
        <time>2014-05-14T09:50:38Z</time>
      </trkpt>
      <trkpt lat="44.03085" lon="6.01025">
        <ele>740.39</ele>
        <time>2014-05-14T09:51:01Z</time>
      </trkpt>
      <trkpt lat="44.03076" lon="6.01035">
        <ele>743.46</ele>
        <time>2014-05-14T09:51:18Z</time>
      </trkpt>
      <trkpt lat="44.03064" lon="6.01052">
        <ele>746.51</ele>
        <time>2014-05-14T09:51:41Z</time>
      </trkpt>
      <trkpt lat="44.03047" lon="6.01065">
        <ele>749.12</ele>
        <time>2014-05-14T09:52:05Z</time>
      </trkpt>
      <trkpt lat="44.03027" lon="6.01076">
        <ele>751.7</ele>
        <time>2014-05-14T09:52:31Z</time>
      </trkpt>
      <trkpt lat="44.0301" lon="6.01098">
        <ele>751.97</ele>
        <time>2014-05-14T09:52:57Z</time>
      </trkpt>
      <trkpt lat="44.03005" lon="6.01142">
        <ele>752.1</ele>
        <time>2014-05-14T09:53:28Z</time>
      </trkpt>
      <trkpt lat="44.03" lon="6.01179">
        <ele>752.38</ele>
        <time>2014-05-14T09:53:50Z</time>
      </trkpt>
      <trkpt lat="44.02992" lon="6.01201">
        <ele>752.72</ele>
        <time>2014-05-14T09:54:06Z</time>
      </trkpt>
      <trkpt lat="44.02985" lon="6.01216">
        <ele>752.98</ele>
        <time>2014-05-14T09:54:20Z</time>
      </trkpt>
      <trkpt lat="44.02976" lon="6.01233">
        <ele>754.25</ele>
        <time>2014-05-14T09:54:36Z</time>
      </trkpt>
      <trkpt lat="44.02966" lon="6.01251">
        <ele>755.77</ele>
        <time>2014-05-14T09:54:52Z</time>
      </trkpt>
      <trkpt lat="44.02954" lon="6.01271">
        <ele>757.54</ele>
        <time>2014-05-14T09:55:11Z</time>
      </trkpt>
      <trkpt lat="44.02941" lon="6.01291">
        <ele>759.3</ele>
        <time>2014-05-14T09:55:33Z</time>
      </trkpt>
      <trkpt lat="44.02934" lon="6.01323">
        <ele>760.03</ele>
        <time>2014-05-14T09:55:59Z</time>
      </trkpt>
      <trkpt lat="44.02931" lon="6.01348">
        <ele>763.09</ele>
        <time>2014-05-14T09:56:20Z</time>
      </trkpt>
      <trkpt lat="44.02929" lon="6.01366">
        <ele>766.12</ele>
        <time>2014-05-14T09:56:41Z</time>
      </trkpt>
      <trkpt lat="44.02924" lon="6.01382">
        <ele>769.18</ele>
        <time>2014-05-14T09:57:00Z</time>
      </trkpt>
      <trkpt lat="44.02919" lon="6.01401">
        <ele>772.26</ele>
        <time>2014-05-14T09:57:22Z</time>
      </trkpt>
      <trkpt lat="44.02915" lon="6.01421">
        <ele>774.13</ele>
        <time>2014-05-14T09:57:44Z</time>
      </trkpt>
      <trkpt lat="44.02912" lon="6.01445">
        <ele>771.17</ele>
        <time>2014-05-14T09:58:06Z</time>
      </trkpt>
      <trkpt lat="44.02915" lon="6.01467">
        <ele>768.55</ele>
        <time>2014-05-14T09:58:29Z</time>
      </trkpt>
      <trkpt lat="44.02923" lon="6.01498">
        <ele>768.38</ele>
        <time>2014-05-14T09:58:54Z</time>
      </trkpt>
      <trkpt lat="44.02929" lon="6.01527">
        <ele>771.41</ele>
        <time>2014-05-14T09:59:18Z</time>
      </trkpt>
      <trkpt lat="44.02935" lon="6.01552">
        <ele>774.38</ele>
        <time>2014-05-14T09:59:44Z</time>
      </trkpt>
      <trkpt lat="44.0294" lon="6.01567">
        <ele>777.47</ele>
        <time>2014-05-14T10:00:03Z</time>
      </trkpt>
      <trkpt lat="44.02942" lon="6.01592">
        <ele>780.17</ele>
        <time>2014-05-14T10:00:27Z</time>
      </trkpt>
      <trkpt lat="44.02941" lon="6.01617">
        <ele>781.28</ele>
        <time>2014-05-14T10:00:52Z</time>
      </trkpt>
      <trkpt lat="44.02926" lon="6.01638">
        <ele>782.21</ele>
        <time>2014-05-14T10:01:17Z</time>
      </trkpt>
      <trkpt lat="44.02912" lon="6.01655">
        <ele>779.07</ele>
        <time>2014-05-14T10:01:41Z</time>
      </trkpt>
      <trkpt lat="44.02896" lon="6.01677">
        <ele>776</ele>
        <time>2014-05-14T10:02:04Z</time>
      </trkpt>
      <trkpt lat="44.02877" lon="6.0171">
        <ele>773.85</ele>
        <time>2014-05-14T10:02:32Z</time>
      </trkpt>
      <trkpt lat="44.02868" lon="6.01729">
        <ele>773.93</ele>
        <time>2014-05-14T10:02:51Z</time>
      </trkpt>
      <trkpt lat="44.02854" lon="6.01751">
        <ele>776.21</ele>
        <time>2014-05-14T10:03:15Z</time>
      </trkpt>
      <trkpt lat="44.02841" lon="6.01767">
        <ele>779.17</ele>
        <time>2014-05-14T10:03:39Z</time>
      </trkpt>
      <trkpt lat="44.02817" lon="6.01771">
        <ele>778.7</ele>
        <time>2014-05-14T10:04:06Z</time>
      </trkpt>
      <trkpt lat="44.02791" lon="6.01778">
        <ele>779.97</ele>
        <time>2014-05-14T10:04:32Z</time>
      </trkpt>
      <trkpt lat="44.02768" lon="6.01787">
        <ele>781.76</ele>
        <time>2014-05-14T10:04:57Z</time>
      </trkpt>
      <trkpt lat="44.02742" lon="6.01803">
        <ele>783.63</ele>
        <time>2014-05-14T10:05:24Z</time>
      </trkpt>
      <trkpt lat="44.02723" lon="6.01825">
        <ele>784.58</ele>
        <time>2014-05-14T10:05:48Z</time>
      </trkpt>
      <trkpt lat="44.02703" lon="6.01855">
        <ele>783.24</ele>
        <time>2014-05-14T10:06:16Z</time>
      </trkpt>
      <trkpt lat="44.02692" lon="6.01871">
        <ele>781.6</ele>
        <time>2014-05-14T10:06:33Z</time>
      </trkpt>
      <trkpt lat="44.02674" lon="6.01891">
        <ele>781.27</ele>
        <time>2014-05-14T10:06:54Z</time>
      </trkpt>
      <trkpt lat="44.02662" lon="6.01912">
        <ele>781.94</ele>
        <time>2014-05-14T10:07:18Z</time>
      </trkpt>
      <trkpt lat="44.02655" lon="6.01927">
        <ele>783.03</ele>
        <time>2014-05-14T10:07:35Z</time>
      </trkpt>
      <trkpt lat="44.02638" lon="6.01954">
        <ele>785.35</ele>
        <time>2014-05-14T10:07:56Z</time>
      </trkpt>
      <trkpt lat="44.02627" lon="6.01972">
        <ele>786.14</ele>
        <time>2014-05-14T10:08:15Z</time>
      </trkpt>
      <trkpt lat="44.02615" lon="6.01993">
        <ele>787.21</ele>
        <time>2014-05-14T10:08:36Z</time>
      </trkpt>
      <trkpt lat="44.02607" lon="6.02006">
        <ele>787</ele>
        <time>2014-05-14T10:08:52Z</time>
      </trkpt>
      <trkpt lat="44.02588" lon="6.02015">
        <ele>787.95</ele>
        <time>2014-05-14T10:09:14Z</time>
      </trkpt>
      <trkpt lat="44.02563" lon="6.02023">
        <ele>786.96</ele>
        <time>2014-05-14T10:09:40Z</time>
      </trkpt>
      <trkpt lat="44.02549" lon="6.02029">
        <ele>783.89</ele>
        <time>2014-05-14T10:09:57Z</time>
      </trkpt>
      <trkpt lat="44.02525" lon="6.0204">
        <ele>780.87</ele>
        <time>2014-05-14T10:10:21Z</time>
      </trkpt>
      <trkpt lat="44.02508" lon="6.0206">
        <ele>780.73</ele>
        <time>2014-05-14T10:10:40Z</time>
      </trkpt>
      <trkpt lat="44.02504" lon="6.02066">
        <ele>780.49</ele>
        <time>2014-05-14T10:10:45Z</time>
      </trkpt>
      <trkpt lat="44.02488" lon="6.02085">
        <ele>780.63</ele>
        <time>2014-05-14T10:11:05Z</time>
      </trkpt>
      <trkpt lat="44.02481" lon="6.02094">
        <ele>780.69</ele>
        <time>2014-05-14T10:11:13Z</time>
      </trkpt>
      <trkpt lat="44.02478" lon="6.02101">
        <ele>780.88</ele>
        <time>2014-05-14T10:11:19Z</time>
      </trkpt>
      <trkpt lat="44.02473" lon="6.02111">
        <ele>780.81</ele>
        <time>2014-05-14T10:11:28Z</time>
      </trkpt>
      <trkpt lat="44.02463" lon="6.02133">
        <ele>779.03</ele>
        <time>2014-05-14T10:11:49Z</time>
      </trkpt>
      <trkpt lat="44.02457" lon="6.02161">
        <ele>778.45</ele>
        <time>2014-05-14T10:12:13Z</time>
      </trkpt>
      <trkpt lat="44.02459" lon="6.02197">
        <ele>781.04</ele>
        <time>2014-05-14T10:12:42Z</time>
      </trkpt>
      <trkpt lat="44.02463" lon="6.02229">
        <ele>784.09</ele>
        <time>2014-05-14T10:13:08Z</time>
      </trkpt>
      <trkpt lat="44.02456" lon="6.02245">
        <ele>787.13</ele>
        <time>2014-05-14T10:13:27Z</time>
      </trkpt>
      <trkpt lat="44.02452" lon="6.02257">
        <ele>790.26</ele>
        <time>2014-05-14T10:13:47Z</time>
      </trkpt>
      <trkpt lat="44.02453" lon="6.02271">
        <ele>793.65</ele>
        <time>2014-05-14T10:14:07Z</time>
      </trkpt>
      <trkpt lat="44.02447" lon="6.0229">
        <ele>796.28</ele>
        <time>2014-05-14T10:14:29Z</time>
      </trkpt>
      <trkpt lat="44.02442" lon="6.02305">
        <ele>799.34</ele>
        <time>2014-05-14T10:14:50Z</time>
      </trkpt>
      <trkpt lat="44.02434" lon="6.02329">
        <ele>801.15</ele>
        <time>2014-05-14T10:15:14Z</time>
      </trkpt>
      <trkpt lat="44.02424" lon="6.02348">
        <ele>804.24</ele>
        <time>2014-05-14T10:15:42Z</time>
      </trkpt>
      <trkpt lat="44.02414" lon="6.02372">
        <ele>807.26</ele>
        <time>2014-05-14T10:16:07Z</time>
      </trkpt>
      <trkpt lat="44.02406" lon="6.0239">
        <ele>809.88</ele>
        <time>2014-05-14T10:16:28Z</time>
      </trkpt>
      <trkpt lat="44.024" lon="6.02413">
        <ele>812.59</ele>
        <time>2014-05-14T10:16:53Z</time>
      </trkpt>
      <trkpt lat="44.024" lon="6.02442">
        <ele>815.19</ele>
        <time>2014-05-14T10:17:21Z</time>
      </trkpt>
      <trkpt lat="44.02398" lon="6.02458">
        <ele>818.18</ele>
        <time>2014-05-14T10:17:43Z</time>
      </trkpt>
      <trkpt lat="44.02388" lon="6.02486">
        <ele>821</ele>
        <time>2014-05-14T10:18:10Z</time>
      </trkpt>
      <trkpt lat="44.02385" lon="6.02516">
        <ele>823.7</ele>
        <time>2014-05-14T10:18:39Z</time>
      </trkpt>
      <trkpt lat="44.02378" lon="6.02541">
        <ele>825.67</ele>
        <time>2014-05-14T10:18:59Z</time>
      </trkpt>
      <trkpt lat="44.02372" lon="6.0255">
        <ele>826.32</ele>
        <time>2014-05-14T10:19:10Z</time>
      </trkpt>
      <trkpt lat="44.02363" lon="6.02565">
        <ele>826.91</ele>
        <time>2014-05-14T10:19:27Z</time>
      </trkpt>
      <trkpt lat="44.02356" lon="6.02573">
        <ele>826.27</ele>
        <time>2014-05-14T10:19:41Z</time>
      </trkpt>
      <trkpt lat="44.02343" lon="6.02592">
        <ele>827.46</ele>
        <time>2014-05-14T10:20:01Z</time>
      </trkpt>
      <trkpt lat="44.02333" lon="6.02604">
        <ele>828.22</ele>
        <time>2014-05-14T10:20:20Z</time>
      </trkpt>
      <trkpt lat="44.02328" lon="6.02613">
        <ele>828.7</ele>
        <time>2014-05-14T10:20:38Z</time>
      </trkpt>
      <trkpt lat="44.02326" lon="6.02617">
        <ele>829.02</ele>
        <time>2014-05-14T10:20:59Z</time>
      </trkpt>
      <trkpt lat="44.02326" lon="6.02615">
        <ele>828.59</ele>
        <time>2014-05-14T10:21:25Z</time>
      </trkpt>
      <trkpt lat="44.02323" lon="6.02616">
        <ele>828.64</ele>
        <time>2014-05-14T10:21:41Z</time>
      </trkpt>
      <trkpt lat="44.02322" lon="6.02616">
        <ele>827.97</ele>
        <time>2014-05-14T10:21:56Z</time>
      </trkpt>
      <trkpt lat="44.02323" lon="6.02618">
        <ele>827.46</ele>
        <time>2014-05-14T10:22:35Z</time>
      </trkpt>
      <trkpt lat="44.02321" lon="6.02618">
        <ele>827.8</ele>
        <time>2014-05-14T10:24:49Z</time>
      </trkpt>
      <trkpt lat="44.02321" lon="6.02618">
        <ele>826.52</ele>
        <time>2014-05-14T10:28:35Z</time>
      </trkpt>
      <trkpt lat="44.0232" lon="6.02619">
        <ele>827.35</ele>
        <time>2014-05-14T10:36:40Z</time>
      </trkpt>
      <trkpt lat="44.02321" lon="6.02619">
        <ele>828.06</ele>
        <time>2014-05-14T10:41:45Z</time>
      </trkpt>
      <trkpt lat="44.02322" lon="6.02618">
        <ele>828.12</ele>
        <time>2014-05-14T10:51:38Z</time>
      </trkpt>
      <trkpt lat="44.02322" lon="6.02618">
        <ele>828.24</ele>
        <time>2014-05-14T10:57:52Z</time>
      </trkpt>
      <trkpt lat="44.02321" lon="6.0262">
        <ele>827.47</ele>
        <time>2014-05-14T11:02:11Z</time>
      </trkpt>
      <trkpt lat="44.02321" lon="6.02618">
        <ele>827.65</ele>
        <time>2014-05-14T11:07:57Z</time>
      </trkpt>
      <trkpt lat="44.02321" lon="6.02617">
        <ele>826.82</ele>
        <time>2014-05-14T11:08:51Z</time>
      </trkpt>
      <trkpt lat="44.02322" lon="6.02616">
        <ele>829.01</ele>
        <time>2014-05-14T11:09:14Z</time>
      </trkpt>
      <trkpt lat="44.02324" lon="6.02614">
        <ele>828.78</ele>
        <time>2014-05-14T11:09:36Z</time>
      </trkpt>
      <trkpt lat="44.02326" lon="6.02614">
        <ele>828.78</ele>
        <time>2014-05-14T11:10:18Z</time>
      </trkpt>
      <trkpt lat="44.02325" lon="6.02614">
        <ele>828.64</ele>
        <time>2014-05-14T11:10:59Z</time>
      </trkpt>
      <trkpt lat="44.02325" lon="6.02612">
        <ele>828.35</ele>
        <time>2014-05-14T11:11:24Z</time>
      </trkpt>
      <trkpt lat="44.02328" lon="6.02611">
        <ele>828.06</ele>
        <time>2014-05-14T11:12:10Z</time>
      </trkpt>
      <trkpt lat="44.02324" lon="6.02613">
        <ele>828.1</ele>
        <time>2014-05-14T11:12:28Z</time>
      </trkpt>
      <trkpt lat="44.02311" lon="6.02611">
        <ele>826.89</ele>
        <time>2014-05-14T11:12:45Z</time>
      </trkpt>
      <trkpt lat="44.02289" lon="6.02605">
        <ele>825.6</ele>
        <time>2014-05-14T11:13:06Z</time>
      </trkpt>
      <trkpt lat="44.02272" lon="6.02597">
        <ele>826.72</ele>
        <time>2014-05-14T11:13:25Z</time>
      </trkpt>
      <trkpt lat="44.0225" lon="6.02586">
        <ele>826.94</ele>
        <time>2014-05-14T11:13:47Z</time>
      </trkpt>
      <trkpt lat="44.02228" lon="6.02581">
        <ele>827.08</ele>
        <time>2014-05-14T11:14:09Z</time>
      </trkpt>
      <trkpt lat="44.02206" lon="6.0258">
        <ele>830.33</ele>
        <time>2014-05-14T11:14:33Z</time>
      </trkpt>
      <trkpt lat="44.02188" lon="6.02578">
        <ele>832.91</ele>
        <time>2014-05-14T11:14:55Z</time>
      </trkpt>
      <trkpt lat="44.02173" lon="6.02578">
        <ele>835.1</ele>
        <time>2014-05-14T11:15:14Z</time>
      </trkpt>
      <trkpt lat="44.0215" lon="6.02584">
        <ele>835.04</ele>
        <time>2014-05-14T11:15:38Z</time>
      </trkpt>
      <trkpt lat="44.02133" lon="6.02594">
        <ele>834.93</ele>
        <time>2014-05-14T11:15:59Z</time>
      </trkpt>
      <trkpt lat="44.02111" lon="6.02599">
        <ele>833.79</ele>
        <time>2014-05-14T11:16:18Z</time>
      </trkpt>
      <trkpt lat="44.02094" lon="6.02598">
        <ele>832.91</ele>
        <time>2014-05-14T11:16:35Z</time>
      </trkpt>
      <trkpt lat="44.0209" lon="6.02597">
        <ele>832.84</ele>
        <time>2014-05-14T11:16:38Z</time>
      </trkpt>
      <trkpt lat="44.02076" lon="6.02593">
        <ele>832.8</ele>
        <time>2014-05-14T11:16:49Z</time>
      </trkpt>
      <trkpt lat="44.02051" lon="6.02582">
        <ele>832.26</ele>
        <time>2014-05-14T11:17:11Z</time>
      </trkpt>
      <trkpt lat="44.02021" lon="6.02562">
        <ele>830.93</ele>
        <time>2014-05-14T11:17:39Z</time>
      </trkpt>
      <trkpt lat="44.02004" lon="6.02544">
        <ele>831.31</ele>
        <time>2014-05-14T11:18:03Z</time>
      </trkpt>
      <trkpt lat="44.02003" lon="6.02533">
        <ele>830.76</ele>
        <time>2014-05-14T11:18:21Z</time>
      </trkpt>
      <trkpt lat="44.02004" lon="6.02531">
        <ele>830.32</ele>
        <time>2014-05-14T11:18:42Z</time>
      </trkpt>
      <trkpt lat="44.02004" lon="6.02529">
        <ele>830.4</ele>
        <time>2014-05-14T11:18:46Z</time>
      </trkpt>
      <trkpt lat="44.02004" lon="6.02526">
        <ele>830.4</ele>
        <time>2014-05-14T11:18:48Z</time>
      </trkpt>
      <trkpt lat="44.02004" lon="6.02523">
        <ele>830.15</ele>
        <time>2014-05-14T11:18:50Z</time>
      </trkpt>
      <trkpt lat="44.02001" lon="6.02496">
        <ele>831.41</ele>
        <time>2014-05-14T11:19:10Z</time>
      </trkpt>
      <trkpt lat="44.01993" lon="6.02469">
        <ele>831.62</ele>
        <time>2014-05-14T11:19:32Z</time>
      </trkpt>
      <trkpt lat="44.01982" lon="6.02449">
        <ele>832.68</ele>
        <time>2014-05-14T11:19:52Z</time>
      </trkpt>
      <trkpt lat="44.01971" lon="6.02435">
        <ele>834.01</ele>
        <time>2014-05-14T11:20:12Z</time>
      </trkpt>
      <trkpt lat="44.01959" lon="6.02424">
        <ele>835.14</ele>
        <time>2014-05-14T11:20:32Z</time>
      </trkpt>
      <trkpt lat="44.01949" lon="6.02415">
        <ele>835.32</ele>
        <time>2014-05-14T11:20:49Z</time>
      </trkpt>
      <trkpt lat="44.01929" lon="6.02395">
        <ele>834.77</ele>
        <time>2014-05-14T11:21:13Z</time>
      </trkpt>
      <trkpt lat="44.01911" lon="6.02375">
        <ele>833.74</ele>
        <time>2014-05-14T11:21:33Z</time>
      </trkpt>
      <trkpt lat="44.01893" lon="6.02355">
        <ele>834</ele>
        <time>2014-05-14T11:21:53Z</time>
      </trkpt>
      <trkpt lat="44.01878" lon="6.02332">
        <ele>833.73</ele>
        <time>2014-05-14T11:22:16Z</time>
      </trkpt>
      <trkpt lat="44.01863" lon="6.02306">
        <ele>832.87</ele>
        <time>2014-05-14T11:22:39Z</time>
      </trkpt>
      <trkpt lat="44.0185" lon="6.02277">
        <ele>832.82</ele>
        <time>2014-05-14T11:23:01Z</time>
      </trkpt>
      <trkpt lat="44.01836" lon="6.02245">
        <ele>833.25</ele>
        <time>2014-05-14T11:23:26Z</time>
      </trkpt>
      <trkpt lat="44.01825" lon="6.0222">
        <ele>833</ele>
        <time>2014-05-14T11:23:46Z</time>
      </trkpt>
      <trkpt lat="44.01813" lon="6.022">
        <ele>832.26</ele>
        <time>2014-05-14T11:24:04Z</time>
      </trkpt>
      <trkpt lat="44.018" lon="6.02185">
        <ele>831.87</ele>
        <time>2014-05-14T11:24:19Z</time>
      </trkpt>
      <trkpt lat="44.0178" lon="6.0217">
        <ele>831.08</ele>
        <time>2014-05-14T11:24:38Z</time>
      </trkpt>
      <trkpt lat="44.01758" lon="6.02153">
        <ele>830.96</ele>
        <time>2014-05-14T11:25:00Z</time>
      </trkpt>
      <trkpt lat="44.01742" lon="6.02134">
        <ele>830.03</ele>
        <time>2014-05-14T11:25:22Z</time>
      </trkpt>
      <trkpt lat="44.01737" lon="6.02124">
        <ele>829.98</ele>
        <time>2014-05-14T11:25:32Z</time>
      </trkpt>
      <trkpt lat="44.01731" lon="6.02089">
        <ele>829.81</ele>
        <time>2014-05-14T11:25:55Z</time>
      </trkpt>
      <trkpt lat="44.01732" lon="6.02062">
        <ele>828.7</ele>
        <time>2014-05-14T11:26:14Z</time>
      </trkpt>
      <trkpt lat="44.01738" lon="6.02026">
        <ele>828.7</ele>
        <time>2014-05-14T11:26:39Z</time>
      </trkpt>
      <trkpt lat="44.01744" lon="6.01997">
        <ele>831.15</ele>
        <time>2014-05-14T11:27:02Z</time>
      </trkpt>
      <trkpt lat="44.01757" lon="6.01969">
        <ele>831.45</ele>
        <time>2014-05-14T11:27:24Z</time>
      </trkpt>
      <trkpt lat="44.01767" lon="6.01944">
        <ele>831.95</ele>
        <time>2014-05-14T11:27:42Z</time>
      </trkpt>
      <trkpt lat="44.01773" lon="6.01912">
        <ele>832.61</ele>
        <time>2014-05-14T11:28:03Z</time>
      </trkpt>
      <trkpt lat="44.01771" lon="6.01881">
        <ele>830.1</ele>
        <time>2014-05-14T11:28:22Z</time>
      </trkpt>
      <trkpt lat="44.01769" lon="6.01852">
        <ele>829.37</ele>
        <time>2014-05-14T11:28:40Z</time>
      </trkpt>
      <trkpt lat="44.01764" lon="6.01818">
        <ele>827.32</ele>
        <time>2014-05-14T11:29:02Z</time>
      </trkpt>
      <trkpt lat="44.01758" lon="6.01778">
        <ele>825.79</ele>
        <time>2014-05-14T11:29:27Z</time>
      </trkpt>
      <trkpt lat="44.01759" lon="6.01731">
        <ele>823.55</ele>
        <time>2014-05-14T11:29:56Z</time>
      </trkpt>
      <trkpt lat="44.01763" lon="6.01711">
        <ele>821.98</ele>
        <time>2014-05-14T11:30:09Z</time>
      </trkpt>
      <trkpt lat="44.01772" lon="6.01676">
        <ele>818.77</ele>
        <time>2014-05-14T11:30:33Z</time>
      </trkpt>
      <trkpt lat="44.01778" lon="6.01639">
        <ele>817.04</ele>
        <time>2014-05-14T11:30:56Z</time>
      </trkpt>
      <trkpt lat="44.01776" lon="6.01601">
        <ele>816.2</ele>
        <time>2014-05-14T11:31:19Z</time>
      </trkpt>
      <trkpt lat="44.01774" lon="6.01555">
        <ele>816.34</ele>
        <time>2014-05-14T11:31:47Z</time>
      </trkpt>
      <trkpt lat="44.01773" lon="6.01524">
        <ele>817.62</ele>
        <time>2014-05-14T11:32:07Z</time>
      </trkpt>
      <trkpt lat="44.01772" lon="6.01493">
        <ele>820.65</ele>
        <time>2014-05-14T11:32:30Z</time>
      </trkpt>
      <trkpt lat="44.0177" lon="6.01457">
        <ele>822.29</ele>
        <time>2014-05-14T11:32:56Z</time>
      </trkpt>
      <trkpt lat="44.01768" lon="6.0145">
        <ele>823.98</ele>
        <time>2014-05-14T11:33:15Z</time>
      </trkpt>
      <trkpt lat="44.01767" lon="6.01441">
        <ele>824.18</ele>
        <time>2014-05-14T11:33:51Z</time>
      </trkpt>
      <trkpt lat="44.01765" lon="6.01429">
        <ele>824.65</ele>
        <time>2014-05-14T11:34:11Z</time>
      </trkpt>
      <trkpt lat="44.01764" lon="6.01416">
        <ele>824.28</ele>
        <time>2014-05-14T11:34:26Z</time>
      </trkpt>
      <trkpt lat="44.01757" lon="6.01394">
        <ele>824.11</ele>
        <time>2014-05-14T11:34:47Z</time>
      </trkpt>
      <trkpt lat="44.0175" lon="6.01368">
        <ele>823.89</ele>
        <time>2014-05-14T11:35:07Z</time>
      </trkpt>
      <trkpt lat="44.01743" lon="6.01339">
        <ele>823.17</ele>
        <time>2014-05-14T11:35:28Z</time>
      </trkpt>
      <trkpt lat="44.01736" lon="6.01304">
        <ele>823.22</ele>
        <time>2014-05-14T11:35:52Z</time>
      </trkpt>
      <trkpt lat="44.01732" lon="6.01265">
        <ele>823.62</ele>
        <time>2014-05-14T11:36:18Z</time>
      </trkpt>
      <trkpt lat="44.01731" lon="6.01224">
        <ele>823.53</ele>
        <time>2014-05-14T11:36:46Z</time>
      </trkpt>
      <trkpt lat="44.01732" lon="6.01189">
        <ele>823.48</ele>
        <time>2014-05-14T11:37:09Z</time>
      </trkpt>
      <trkpt lat="44.01734" lon="6.01153">
        <ele>822.64</ele>
        <time>2014-05-14T11:37:33Z</time>
      </trkpt>
      <trkpt lat="44.01735" lon="6.01125">
        <ele>821.84</ele>
        <time>2014-05-14T11:37:53Z</time>
      </trkpt>
      <trkpt lat="44.01739" lon="6.01096">
        <ele>820.39</ele>
        <time>2014-05-14T11:38:12Z</time>
      </trkpt>
      <trkpt lat="44.01744" lon="6.01055">
        <ele>818.54</ele>
        <time>2014-05-14T11:38:39Z</time>
      </trkpt>
      <trkpt lat="44.01747" lon="6.01024">
        <ele>818.46</ele>
        <time>2014-05-14T11:39:01Z</time>
      </trkpt>
      <trkpt lat="44.01749" lon="6.00997">
        <ele>818.18</ele>
        <time>2014-05-14T11:39:22Z</time>
      </trkpt>
      <trkpt lat="44.01748" lon="6.0099">
        <ele>818.5</ele>
        <time>2014-05-14T11:39:41Z</time>
      </trkpt>
      <trkpt lat="44.01747" lon="6.00965">
        <ele>819.85</ele>
        <time>2014-05-14T11:40:02Z</time>
      </trkpt>
      <trkpt lat="44.01743" lon="6.00938">
        <ele>818.54</ele>
        <time>2014-05-14T11:40:23Z</time>
      </trkpt>
      <trkpt lat="44.01731" lon="6.00916">
        <ele>818.16</ele>
        <time>2014-05-14T11:40:40Z</time>
      </trkpt>
      <trkpt lat="44.01718" lon="6.0089">
        <ele>816.44</ele>
        <time>2014-05-14T11:40:59Z</time>
      </trkpt>
      <trkpt lat="44.01695" lon="6.00858">
        <ele>814.34</ele>
        <time>2014-05-14T11:41:25Z</time>
      </trkpt>
      <trkpt lat="44.01681" lon="6.00839">
        <ele>813.86</ele>
        <time>2014-05-14T11:41:42Z</time>
      </trkpt>
      <trkpt lat="44.01672" lon="6.00822">
        <ele>814.76</ele>
        <time>2014-05-14T11:41:59Z</time>
      </trkpt>
      <trkpt lat="44.01659" lon="6.008">
        <ele>815.91</ele>
        <time>2014-05-14T11:42:18Z</time>
      </trkpt>
      <trkpt lat="44.01657" lon="6.00797">
        <ele>815.97</ele>
        <time>2014-05-14T11:42:21Z</time>
      </trkpt>
      <trkpt lat="44.01642" lon="6.00771">
        <ele>817.51</ele>
        <time>2014-05-14T11:42:42Z</time>
      </trkpt>
      <trkpt lat="44.01628" lon="6.00748">
        <ele>816.34</ele>
        <time>2014-05-14T11:43:02Z</time>
      </trkpt>
      <trkpt lat="44.01611" lon="6.00725">
        <ele>815.42</ele>
        <time>2014-05-14T11:43:23Z</time>
      </trkpt>
      <trkpt lat="44.01596" lon="6.007">
        <ele>814.03</ele>
        <time>2014-05-14T11:43:45Z</time>
      </trkpt>
      <trkpt lat="44.01584" lon="6.00672">
        <ele>816.12</ele>
        <time>2014-05-14T11:44:08Z</time>
      </trkpt>
      <trkpt lat="44.01571" lon="6.00646">
        <ele>814.13</ele>
        <time>2014-05-14T11:44:29Z</time>
      </trkpt>
      <trkpt lat="44.01551" lon="6.00605">
        <ele>813.57</ele>
        <time>2014-05-14T11:44:59Z</time>
      </trkpt>
      <trkpt lat="44.01543" lon="6.00593">
        <ele>812.61</ele>
        <time>2014-05-14T11:45:09Z</time>
      </trkpt>
      <trkpt lat="44.01526" lon="6.00579">
        <ele>811.91</ele>
        <time>2014-05-14T11:45:29Z</time>
      </trkpt>
      <trkpt lat="44.01501" lon="6.00564">
        <ele>811.97</ele>
        <time>2014-05-14T11:45:54Z</time>
      </trkpt>
      <trkpt lat="44.01482" lon="6.00553">
        <ele>811.98</ele>
        <time>2014-05-14T11:46:13Z</time>
      </trkpt>
      <trkpt lat="44.01459" lon="6.00529">
        <ele>810.66</ele>
        <time>2014-05-14T11:46:38Z</time>
      </trkpt>
      <trkpt lat="44.0145" lon="6.00505">
        <ele>810.79</ele>
        <time>2014-05-14T11:46:56Z</time>
      </trkpt>
      <trkpt lat="44.01448" lon="6.00472">
        <ele>809.29</ele>
        <time>2014-05-14T11:47:19Z</time>
      </trkpt>
      <trkpt lat="44.01451" lon="6.00443">
        <ele>808.13</ele>
        <time>2014-05-14T11:47:40Z</time>
      </trkpt>
      <trkpt lat="44.01455" lon="6.00421">
        <ele>807.21</ele>
        <time>2014-05-14T11:47:56Z</time>
      </trkpt>
      <trkpt lat="44.01456" lon="6.00396">
        <ele>804.21</ele>
        <time>2014-05-14T11:48:15Z</time>
      </trkpt>
      <trkpt lat="44.01455" lon="6.00393">
        <ele>803.69</ele>
        <time>2014-05-14T11:48:17Z</time>
      </trkpt>
      <trkpt lat="44.01454" lon="6.00363">
        <ele>801.03</ele>
        <time>2014-05-14T11:48:38Z</time>
      </trkpt>
      <trkpt lat="44.01447" lon="6.00333">
        <ele>799.15</ele>
        <time>2014-05-14T11:49:00Z</time>
      </trkpt>
      <trkpt lat="44.01433" lon="6.00311">
        <ele>797.82</ele>
        <time>2014-05-14T11:49:18Z</time>
      </trkpt>
      <trkpt lat="44.0142" lon="6.00283">
        <ele>796.76</ele>
        <time>2014-05-14T11:49:38Z</time>
      </trkpt>
      <trkpt lat="44.01401" lon="6.00257">
        <ele>794.95</ele>
        <time>2014-05-14T11:50:01Z</time>
      </trkpt>
      <trkpt lat="44.01383" lon="6.00237">
        <ele>795.57</ele>
        <time>2014-05-14T11:50:20Z</time>
      </trkpt>
      <trkpt lat="44.01367" lon="6.0022">
        <ele>795.44</ele>
        <time>2014-05-14T11:50:37Z</time>
      </trkpt>
      <trkpt lat="44.01354" lon="6.00203">
        <ele>796.52</ele>
        <time>2014-05-14T11:50:55Z</time>
      </trkpt>
      <trkpt lat="44.01337" lon="6.0018">
        <ele>798.48</ele>
        <time>2014-05-14T11:51:19Z</time>
      </trkpt>
      <trkpt lat="44.01325" lon="6.0016">
        <ele>799.08</ele>
        <time>2014-05-14T11:51:36Z</time>
      </trkpt>
      <trkpt lat="44.01309" lon="6.0013">
        <ele>797.86</ele>
        <time>2014-05-14T11:52:01Z</time>
      </trkpt>
      <trkpt lat="44.01297" lon="6.00114">
        <ele>796.1</ele>
        <time>2014-05-14T11:52:17Z</time>
      </trkpt>
      <trkpt lat="44.01284" lon="6.001">
        <ele>795.22</ele>
        <time>2014-05-14T11:52:32Z</time>
      </trkpt>
      <trkpt lat="44.01274" lon="6.00091">
        <ele>793.84</ele>
        <time>2014-05-14T11:52:45Z</time>
      </trkpt>
      <trkpt lat="44.0126" lon="6.00083">
        <ele>791.21</ele>
        <time>2014-05-14T11:53:07Z</time>
      </trkpt>
      <trkpt lat="44.01256" lon="6.0008">
        <ele>791.03</ele>
        <time>2014-05-14T11:53:11Z</time>
      </trkpt>
      <trkpt lat="44.01235" lon="6.00075">
        <ele>789.18</ele>
        <time>2014-05-14T11:53:30Z</time>
      </trkpt>
      <trkpt lat="44.01223" lon="6.00075">
        <ele>787.74</ele>
        <time>2014-05-14T11:53:44Z</time>
      </trkpt>
      <trkpt lat="44.0122" lon="6.00074">
        <ele>787.41</ele>
        <time>2014-05-14T11:53:47Z</time>
      </trkpt>
      <trkpt lat="44.01218" lon="6.00074">
        <ele>787.21</ele>
        <time>2014-05-14T11:53:49Z</time>
      </trkpt>
      <trkpt lat="44.01197" lon="6.00071">
        <ele>784.71</ele>
        <time>2014-05-14T11:54:13Z</time>
      </trkpt>
      <trkpt lat="44.01189" lon="6.00069">
        <ele>783.07</ele>
        <time>2014-05-14T11:54:32Z</time>
      </trkpt>
      <trkpt lat="44.01185" lon="6.00062">
        <ele>784.07</ele>
        <time>2014-05-14T11:54:54Z</time>
      </trkpt>
      <trkpt lat="44.01183" lon="6.00056">
        <ele>783</ele>
        <time>2014-05-14T11:55:20Z</time>
      </trkpt>
      <trkpt lat="44.0118" lon="6.00051">
        <ele>783.76</ele>
        <time>2014-05-14T11:55:48Z</time>
      </trkpt>
      <trkpt lat="44.01181" lon="6.00048">
        <ele>783.46</ele>
        <time>2014-05-14T11:56:30Z</time>
      </trkpt>
      <trkpt lat="44.0118" lon="6.00043">
        <ele>784.01</ele>
        <time>2014-05-14T11:56:35Z</time>
      </trkpt>
      <trkpt lat="44.01168" lon="6.00021">
        <ele>781</ele>
        <time>2014-05-14T11:56:57Z</time>
      </trkpt>
      <trkpt lat="44.0116" lon="6.00004">
        <ele>778.65</ele>
        <time>2014-05-14T11:57:12Z</time>
      </trkpt>
      <trkpt lat="44.01167" lon="6.00004">
        <ele>776.81</ele>
        <time>2014-05-14T11:57:30Z</time>
      </trkpt>
      <trkpt lat="44.01172" lon="6.00005">
        <ele>776.66</ele>
        <time>2014-05-14T11:57:36Z</time>
      </trkpt>
      <trkpt lat="44.01188" lon="6.00011">
        <ele>774.58</ele>
        <time>2014-05-14T11:57:51Z</time>
      </trkpt>
      <trkpt lat="44.01209" lon="6.00016">
        <ele>773.01</ele>
        <time>2014-05-14T11:58:10Z</time>
      </trkpt>
      <trkpt lat="44.01226" lon="6.00013">
        <ele>771.76</ele>
        <time>2014-05-14T11:58:26Z</time>
      </trkpt>
      <trkpt lat="44.01245" lon="5.99997">
        <ele>768.72</ele>
        <time>2014-05-14T11:58:45Z</time>
      </trkpt>
      <trkpt lat="44.01259" lon="5.99984">
        <ele>768.06</ele>
        <time>2014-05-14T11:59:02Z</time>
      </trkpt>
      <trkpt lat="44.01279" lon="5.99967">
        <ele>766.58</ele>
        <time>2014-05-14T11:59:22Z</time>
      </trkpt>
      <trkpt lat="44.01296" lon="5.99949">
        <ele>764.77</ele>
        <time>2014-05-14T11:59:42Z</time>
      </trkpt>
      <trkpt lat="44.01319" lon="5.99928">
        <ele>762.11</ele>
        <time>2014-05-14T12:00:05Z</time>
      </trkpt>
      <trkpt lat="44.01337" lon="5.99912">
        <ele>760.88</ele>
        <time>2014-05-14T12:00:24Z</time>
      </trkpt>
      <trkpt lat="44.01347" lon="5.99904">
        <ele>758.43</ele>
        <time>2014-05-14T12:00:44Z</time>
      </trkpt>
      <trkpt lat="44.01348" lon="5.99901">
        <ele>758.93</ele>
        <time>2014-05-14T12:01:01Z</time>
      </trkpt>
      <trkpt lat="44.01349" lon="5.999">
        <ele>758.93</ele>
        <time>2014-05-14T12:01:02Z</time>
      </trkpt>
      <trkpt lat="44.01356" lon="5.99893">
        <ele>758.29</ele>
        <time>2014-05-14T12:01:14Z</time>
      </trkpt>
      <trkpt lat="44.01368" lon="5.99878">
        <ele>756.38</ele>
        <time>2014-05-14T12:01:31Z</time>
      </trkpt>
      <trkpt lat="44.01384" lon="5.99852">
        <ele>755.59</ele>
        <time>2014-05-14T12:01:54Z</time>
      </trkpt>
      <trkpt lat="44.01391" lon="5.9983">
        <ele>756.48</ele>
        <time>2014-05-14T12:02:12Z</time>
      </trkpt>
      <trkpt lat="44.01393" lon="5.99819">
        <ele>757.96</ele>
        <time>2014-05-14T12:02:20Z</time>
      </trkpt>
      <trkpt lat="44.01391" lon="5.99788">
        <ele>758.19</ele>
        <time>2014-05-14T12:02:42Z</time>
      </trkpt>
      <trkpt lat="44.01394" lon="5.99753">
        <ele>758.29</ele>
        <time>2014-05-14T12:03:03Z</time>
      </trkpt>
      <trkpt lat="44.014" lon="5.99721">
        <ele>757.43</ele>
        <time>2014-05-14T12:03:23Z</time>
      </trkpt>
      <trkpt lat="44.01404" lon="5.99694">
        <ele>756.84</ele>
        <time>2014-05-14T12:03:45Z</time>
      </trkpt>
      <trkpt lat="44.01413" lon="5.99663">
        <ele>756.32</ele>
        <time>2014-05-14T12:04:05Z</time>
      </trkpt>
      <trkpt lat="44.01427" lon="5.99637">
        <ele>755.85</ele>
        <time>2014-05-14T12:04:26Z</time>
      </trkpt>
      <trkpt lat="44.01449" lon="5.99603">
        <ele>756.22</ele>
        <time>2014-05-14T12:04:51Z</time>
      </trkpt>
      <trkpt lat="44.01469" lon="5.99571">
        <ele>756.33</ele>
        <time>2014-05-14T12:05:16Z</time>
      </trkpt>
      <trkpt lat="44.01489" lon="5.99543">
        <ele>758.05</ele>
        <time>2014-05-14T12:05:43Z</time>
      </trkpt>
      <trkpt lat="44.01503" lon="5.9952">
        <ele>760.42</ele>
        <time>2014-05-14T12:06:05Z</time>
      </trkpt>
      <trkpt lat="44.01504" lon="5.99519">
        <ele>760.5</ele>
        <time>2014-05-14T12:06:06Z</time>
      </trkpt>
      <trkpt lat="44.01507" lon="5.99516">
        <ele>760.74</ele>
        <time>2014-05-14T12:06:09Z</time>
      </trkpt>
      <trkpt lat="44.01527" lon="5.995">
        <ele>763.14</ele>
        <time>2014-05-14T12:06:33Z</time>
      </trkpt>
      <trkpt lat="44.01545" lon="5.99484">
        <ele>763.97</ele>
        <time>2014-05-14T12:06:52Z</time>
      </trkpt>
      <trkpt lat="44.0156" lon="5.99458">
        <ele>764.24</ele>
        <time>2014-05-14T12:07:15Z</time>
      </trkpt>
      <trkpt lat="44.0157" lon="5.99438">
        <ele>764.27</ele>
        <time>2014-05-14T12:07:33Z</time>
      </trkpt>
      <trkpt lat="44.01584" lon="5.99413">
        <ele>763.45</ele>
        <time>2014-05-14T12:07:54Z</time>
      </trkpt>
      <trkpt lat="44.01602" lon="5.99384">
        <ele>762.7</ele>
        <time>2014-05-14T12:08:20Z</time>
      </trkpt>
      <trkpt lat="44.0161" lon="5.99351">
        <ele>761.84</ele>
        <time>2014-05-14T12:08:43Z</time>
      </trkpt>
      <trkpt lat="44.0161" lon="5.99315">
        <ele>762.06</ele>
        <time>2014-05-14T12:09:04Z</time>
      </trkpt>
      <trkpt lat="44.01602" lon="5.99283">
        <ele>760.82</ele>
        <time>2014-05-14T12:09:24Z</time>
      </trkpt>
      <trkpt lat="44.01586" lon="5.99258">
        <ele>761.94</ele>
        <time>2014-05-14T12:09:46Z</time>
      </trkpt>
      <trkpt lat="44.01572" lon="5.99234">
        <ele>763.3</ele>
        <time>2014-05-14T12:10:08Z</time>
      </trkpt>
      <trkpt lat="44.01564" lon="5.992">
        <ele>764.81</ele>
        <time>2014-05-14T12:10:31Z</time>
      </trkpt>
      <trkpt lat="44.01565" lon="5.99165">
        <ele>765.46</ele>
        <time>2014-05-14T12:10:55Z</time>
      </trkpt>
      <trkpt lat="44.01571" lon="5.99139">
        <ele>766.41</ele>
        <time>2014-05-14T12:11:15Z</time>
      </trkpt>
      <trkpt lat="44.01584" lon="5.99111">
        <ele>767.1</ele>
        <time>2014-05-14T12:11:36Z</time>
      </trkpt>
      <trkpt lat="44.01594" lon="5.99085">
        <ele>766.54</ele>
        <time>2014-05-14T12:11:54Z</time>
      </trkpt>
      <trkpt lat="44.01598" lon="5.99058">
        <ele>765.85</ele>
        <time>2014-05-14T12:12:13Z</time>
      </trkpt>
      <trkpt lat="44.01592" lon="5.99026">
        <ele>765.22</ele>
        <time>2014-05-14T12:12:33Z</time>
      </trkpt>
      <trkpt lat="44.01584" lon="5.98993">
        <ele>763.01</ele>
        <time>2014-05-14T12:12:54Z</time>
      </trkpt>
      <trkpt lat="44.0157" lon="5.98966">
        <ele>764.62</ele>
        <time>2014-05-14T12:13:15Z</time>
      </trkpt>
      <trkpt lat="44.01559" lon="5.9895">
        <ele>764.6</ele>
        <time>2014-05-14T12:13:34Z</time>
      </trkpt>
      <trkpt lat="44.01557" lon="5.9894">
        <ele>765.09</ele>
        <time>2014-05-14T12:13:53Z</time>
      </trkpt>
      <trkpt lat="44.01558" lon="5.98931">
        <ele>763.59</ele>
        <time>2014-05-14T12:14:16Z</time>
      </trkpt>
      <trkpt lat="44.01555" lon="5.98928">
        <ele>762.49</ele>
        <time>2014-05-14T12:14:39Z</time>
      </trkpt>
      <trkpt lat="44.01554" lon="5.98928">
        <ele>762.14</ele>
        <time>2014-05-14T12:15:10Z</time>
      </trkpt>
      <trkpt lat="44.01553" lon="5.98927">
        <ele>762.44</ele>
        <time>2014-05-14T12:17:31Z</time>
      </trkpt>
      <trkpt lat="44.0156" lon="5.9892">
        <ele>764.25</ele>
        <time>2014-05-14T12:17:51Z</time>
      </trkpt>
      <trkpt lat="44.01566" lon="5.98915">
        <ele>763.29</ele>
        <time>2014-05-14T12:18:05Z</time>
      </trkpt>
      <trkpt lat="44.01569" lon="5.98913">
        <ele>762.89</ele>
        <time>2014-05-14T12:18:09Z</time>
      </trkpt>
      <trkpt lat="44.01576" lon="5.98906">
        <ele>759.6</ele>
        <time>2014-05-14T12:18:23Z</time>
      </trkpt>
      <trkpt lat="44.0159" lon="5.98897">
        <ele>758.09</ele>
        <time>2014-05-14T12:18:41Z</time>
      </trkpt>
      <trkpt lat="44.01599" lon="5.98893">
        <ele>756.4</ele>
        <time>2014-05-14T12:18:49Z</time>
      </trkpt>
      <trkpt lat="44.01619" lon="5.98877">
        <ele>754.48</ele>
        <time>2014-05-14T12:19:06Z</time>
      </trkpt>
      <trkpt lat="44.01642" lon="5.98857">
        <ele>752.22</ele>
        <time>2014-05-14T12:19:27Z</time>
      </trkpt>
      <trkpt lat="44.01655" lon="5.98839">
        <ele>753.01</ele>
        <time>2014-05-14T12:19:45Z</time>
      </trkpt>
      <trkpt lat="44.01663" lon="5.98815">
        <ele>753.12</ele>
        <time>2014-05-14T12:20:02Z</time>
      </trkpt>
      <trkpt lat="44.01668" lon="5.98794">
        <ele>752.91</ele>
        <time>2014-05-14T12:20:18Z</time>
      </trkpt>
      <trkpt lat="44.01673" lon="5.98765">
        <ele>752.72</ele>
        <time>2014-05-14T12:20:36Z</time>
      </trkpt>
      <trkpt lat="44.01681" lon="5.9875">
        <ele>752.53</ele>
        <time>2014-05-14T12:20:48Z</time>
      </trkpt>
      <trkpt lat="44.01689" lon="5.98745">
        <ele>752.96</ele>
        <time>2014-05-14T12:20:53Z</time>
      </trkpt>
      <trkpt lat="44.01702" lon="5.98743">
        <ele>751.22</ele>
        <time>2014-05-14T12:21:05Z</time>
      </trkpt>
      <trkpt lat="44.01712" lon="5.98746">
        <ele>748.56</ele>
        <time>2014-05-14T12:21:17Z</time>
      </trkpt>
      <trkpt lat="44.0173" lon="5.9875">
        <ele>746.11</ele>
        <time>2014-05-14T12:21:35Z</time>
      </trkpt>
      <trkpt lat="44.01734" lon="5.9875">
        <ele>745.72</ele>
        <time>2014-05-14T12:21:38Z</time>
      </trkpt>
      <trkpt lat="44.01746" lon="5.98756">
        <ele>744.23</ele>
        <time>2014-05-14T12:21:51Z</time>
      </trkpt>
      <trkpt lat="44.01762" lon="5.9876">
        <ele>741.87</ele>
        <time>2014-05-14T12:22:08Z</time>
      </trkpt>
      <trkpt lat="44.01782" lon="5.98757">
        <ele>740.9</ele>
        <time>2014-05-14T12:22:26Z</time>
      </trkpt>
      <trkpt lat="44.01785" lon="5.98756">
        <ele>740.69</ele>
        <time>2014-05-14T12:22:28Z</time>
      </trkpt>
      <trkpt lat="44.01794" lon="5.98752">
        <ele>739.81</ele>
        <time>2014-05-14T12:22:36Z</time>
      </trkpt>
      <trkpt lat="44.01807" lon="5.98747">
        <ele>739.81</ele>
        <time>2014-05-14T12:22:48Z</time>
      </trkpt>
      <trkpt lat="44.01824" lon="5.98738">
        <ele>738.72</ele>
        <time>2014-05-14T12:23:05Z</time>
      </trkpt>
      <trkpt lat="44.01838" lon="5.98728">
        <ele>737.05</ele>
        <time>2014-05-14T12:23:21Z</time>
      </trkpt>
      <trkpt lat="44.0185" lon="5.98711">
        <ele>735.19</ele>
        <time>2014-05-14T12:23:40Z</time>
      </trkpt>
      <trkpt lat="44.01862" lon="5.98692">
        <ele>732.64</ele>
        <time>2014-05-14T12:23:58Z</time>
      </trkpt>
      <trkpt lat="44.0187" lon="5.98671">
        <ele>731.19</ele>
        <time>2014-05-14T12:24:16Z</time>
      </trkpt>
      <trkpt lat="44.01876" lon="5.98659">
        <ele>731.53</ele>
        <time>2014-05-14T12:24:24Z</time>
      </trkpt>
      <trkpt lat="44.01881" lon="5.98645">
        <ele>730.47</ele>
        <time>2014-05-14T12:24:36Z</time>
      </trkpt>
      <trkpt lat="44.01884" lon="5.98636">
        <ele>729.94</ele>
        <time>2014-05-14T12:24:44Z</time>
      </trkpt>
      <trkpt lat="44.0189" lon="5.98615">
        <ele>727.95</ele>
        <time>2014-05-14T12:24:58Z</time>
      </trkpt>
      <trkpt lat="44.01892" lon="5.986">
        <ele>727.16</ele>
        <time>2014-05-14T12:25:07Z</time>
      </trkpt>
      <trkpt lat="44.01896" lon="5.98585">
        <ele>726.4</ele>
        <time>2014-05-14T12:25:19Z</time>
      </trkpt>
      <trkpt lat="44.01898" lon="5.98575">
        <ele>726.22</ele>
        <time>2014-05-14T12:25:26Z</time>
      </trkpt>
      <trkpt lat="44.01901" lon="5.98567">
        <ele>725.42</ele>
        <time>2014-05-14T12:25:31Z</time>
      </trkpt>
      <trkpt lat="44.01904" lon="5.98552">
        <ele>724.43</ele>
        <time>2014-05-14T12:25:40Z</time>
      </trkpt>
      <trkpt lat="44.01906" lon="5.98532">
        <ele>723.39</ele>
        <time>2014-05-14T12:25:54Z</time>
      </trkpt>
      <trkpt lat="44.0191" lon="5.98521">
        <ele>723.64</ele>
        <time>2014-05-14T12:26:01Z</time>
      </trkpt>
      <trkpt lat="44.0191" lon="5.98518">
        <ele>723.62</ele>
        <time>2014-05-14T12:26:03Z</time>
      </trkpt>
      <trkpt lat="44.01916" lon="5.98502">
        <ele>722.46</ele>
        <time>2014-05-14T12:26:18Z</time>
      </trkpt>
      <trkpt lat="44.01919" lon="5.98497">
        <ele>721.18</ele>
        <time>2014-05-14T12:26:22Z</time>
      </trkpt>
      <trkpt lat="44.01924" lon="5.98474">
        <ele>717.91</ele>
        <time>2014-05-14T12:26:38Z</time>
      </trkpt>
      <trkpt lat="44.0193" lon="5.98453">
        <ele>715.3</ele>
        <time>2014-05-14T12:26:56Z</time>
      </trkpt>
      <trkpt lat="44.01934" lon="5.98439">
        <ele>712.59</ele>
        <time>2014-05-14T12:27:12Z</time>
      </trkpt>
      <trkpt lat="44.01941" lon="5.98422">
        <ele>710.29</ele>
        <time>2014-05-14T12:27:29Z</time>
      </trkpt>
      <trkpt lat="44.01949" lon="5.98406">
        <ele>708.54</ele>
        <time>2014-05-14T12:27:42Z</time>
      </trkpt>
      <trkpt lat="44.01957" lon="5.98387">
        <ele>705.75</ele>
        <time>2014-05-14T12:28:00Z</time>
      </trkpt>
      <trkpt lat="44.01958" lon="5.98386">
        <ele>705.47</ele>
        <time>2014-05-14T12:28:02Z</time>
      </trkpt>
      <trkpt lat="44.01962" lon="5.98378">
        <ele>705.01</ele>
        <time>2014-05-14T12:28:06Z</time>
      </trkpt>
      <trkpt lat="44.01964" lon="5.98374">
        <ele>704.76</ele>
        <time>2014-05-14T12:28:08Z</time>
      </trkpt>
      <trkpt lat="44.01968" lon="5.98365">
        <ele>704.35</ele>
        <time>2014-05-14T12:28:16Z</time>
      </trkpt>
      <trkpt lat="44.0197" lon="5.98358">
        <ele>705.16</ele>
        <time>2014-05-14T12:28:21Z</time>
      </trkpt>
      <trkpt lat="44.01978" lon="5.98344">
        <ele>703.07</ele>
        <time>2014-05-14T12:28:36Z</time>
      </trkpt>
      <trkpt lat="44.01985" lon="5.98329">
        <ele>699.94</ele>
        <time>2014-05-14T12:28:50Z</time>
      </trkpt>
      <trkpt lat="44.01992" lon="5.98315">
        <ele>698.26</ele>
        <time>2014-05-14T12:29:01Z</time>
      </trkpt>
      <trkpt lat="44.01995" lon="5.9831">
        <ele>697.64</ele>
        <time>2014-05-14T12:29:05Z</time>
      </trkpt>
      <trkpt lat="44.02" lon="5.98304">
        <ele>695.85</ele>
        <time>2014-05-14T12:29:18Z</time>
      </trkpt>
      <trkpt lat="44.01998" lon="5.98302">
        <ele>696.12</ele>
        <time>2014-05-14T12:29:45Z</time>
      </trkpt>
      <trkpt lat="44.02003" lon="5.9829">
        <ele>695.5</ele>
        <time>2014-05-14T12:30:18Z</time>
      </trkpt>
      <trkpt lat="44.0201" lon="5.98277">
        <ele>692.8</ele>
        <time>2014-05-14T12:30:32Z</time>
      </trkpt>
      <trkpt lat="44.0201" lon="5.98276">
        <ele>692.6</ele>
        <time>2014-05-14T12:30:33Z</time>
      </trkpt>
      <trkpt lat="44.02015" lon="5.98263">
        <ele>689.23</ele>
        <time>2014-05-14T12:30:43Z</time>
      </trkpt>
      <trkpt lat="44.02019" lon="5.98244">
        <ele>686.17</ele>
        <time>2014-05-14T12:30:57Z</time>
      </trkpt>
      <trkpt lat="44.02026" lon="5.98221">
        <ele>683.82</ele>
        <time>2014-05-14T12:31:12Z</time>
      </trkpt>
      <trkpt lat="44.02029" lon="5.98208">
        <ele>682.59</ele>
        <time>2014-05-14T12:31:21Z</time>
      </trkpt>
      <trkpt lat="44.02032" lon="5.9819">
        <ele>680.26</ele>
        <time>2014-05-14T12:31:34Z</time>
      </trkpt>
      <trkpt lat="44.02037" lon="5.98174">
        <ele>678.57</ele>
        <time>2014-05-14T12:31:45Z</time>
      </trkpt>
      <trkpt lat="44.02038" lon="5.98167">
        <ele>677.45</ele>
        <time>2014-05-14T12:31:50Z</time>
      </trkpt>
      <trkpt lat="44.02038" lon="5.98164">
        <ele>676.92</ele>
        <time>2014-05-14T12:31:52Z</time>
      </trkpt>
      <trkpt lat="44.02042" lon="5.98156">
        <ele>676.26</ele>
        <time>2014-05-14T12:31:58Z</time>
      </trkpt>
      <trkpt lat="44.02044" lon="5.9815">
        <ele>675.63</ele>
        <time>2014-05-14T12:32:02Z</time>
      </trkpt>
      <trkpt lat="44.02045" lon="5.98145">
        <ele>675.25</ele>
        <time>2014-05-14T12:32:05Z</time>
      </trkpt>
      <trkpt lat="44.02046" lon="5.9814">
        <ele>674.94</ele>
        <time>2014-05-14T12:32:08Z</time>
      </trkpt>
      <trkpt lat="44.02049" lon="5.98121">
        <ele>673.13</ele>
        <time>2014-05-14T12:32:19Z</time>
      </trkpt>
      <trkpt lat="44.0205" lon="5.98114">
        <ele>672.59</ele>
        <time>2014-05-14T12:32:23Z</time>
      </trkpt>
      <trkpt lat="44.02052" lon="5.98094">
        <ele>672.16</ele>
        <time>2014-05-14T12:32:36Z</time>
      </trkpt>
      <trkpt lat="44.02056" lon="5.98072">
        <ele>672.01</ele>
        <time>2014-05-14T12:32:49Z</time>
      </trkpt>
      <trkpt lat="44.02059" lon="5.98053">
        <ele>672.52</ele>
        <time>2014-05-14T12:33:02Z</time>
      </trkpt>
      <trkpt lat="44.0206" lon="5.98046">
        <ele>672.73</ele>
        <time>2014-05-14T12:33:06Z</time>
      </trkpt>
      <trkpt lat="44.02064" lon="5.98024">
        <ele>673.21</ele>
        <time>2014-05-14T12:33:18Z</time>
      </trkpt>
      <trkpt lat="44.02066" lon="5.98007">
        <ele>674.82</ele>
        <time>2014-05-14T12:33:31Z</time>
      </trkpt>
      <trkpt lat="44.02066" lon="5.97997">
        <ele>675.23</ele>
        <time>2014-05-14T12:33:37Z</time>
      </trkpt>
      <trkpt lat="44.02064" lon="5.97977">
        <ele>675.63</ele>
        <time>2014-05-14T12:33:51Z</time>
      </trkpt>
      <trkpt lat="44.02056" lon="5.97962">
        <ele>672.61</ele>
        <time>2014-05-14T12:34:06Z</time>
      </trkpt>
      <trkpt lat="44.0205" lon="5.97952">
        <ele>669.45</ele>
        <time>2014-05-14T12:34:19Z</time>
      </trkpt>
      <trkpt lat="44.02044" lon="5.97936">
        <ele>666.35</ele>
        <time>2014-05-14T12:34:33Z</time>
      </trkpt>
      <trkpt lat="44.02041" lon="5.97931">
        <ele>665.43</ele>
        <time>2014-05-14T12:34:38Z</time>
      </trkpt>
      <trkpt lat="44.02034" lon="5.97916">
        <ele>662.46</ele>
        <time>2014-05-14T12:34:52Z</time>
      </trkpt>
      <trkpt lat="44.02032" lon="5.97913">
        <ele>662.06</ele>
        <time>2014-05-14T12:34:55Z</time>
      </trkpt>
      <trkpt lat="44.02025" lon="5.97897">
        <ele>660.03</ele>
        <time>2014-05-14T12:35:09Z</time>
      </trkpt>
      <trkpt lat="44.02015" lon="5.97885">
        <ele>658.43</ele>
        <time>2014-05-14T12:35:19Z</time>
      </trkpt>
      <trkpt lat="44.02008" lon="5.97875">
        <ele>656.87</ele>
        <time>2014-05-14T12:35:30Z</time>
      </trkpt>
      <trkpt lat="44.02005" lon="5.9787">
        <ele>656.35</ele>
        <time>2014-05-14T12:35:35Z</time>
      </trkpt>
      <trkpt lat="44.02003" lon="5.97866">
        <ele>656.03</ele>
        <time>2014-05-14T12:35:38Z</time>
      </trkpt>
      <trkpt lat="44.02002" lon="5.97864">
        <ele>655.78</ele>
        <time>2014-05-14T12:35:40Z</time>
      </trkpt>
      <trkpt lat="44.01995" lon="5.97846">
        <ele>653.88</ele>
        <time>2014-05-14T12:35:52Z</time>
      </trkpt>
      <trkpt lat="44.01986" lon="5.9783">
        <ele>653.09</ele>
        <time>2014-05-14T12:36:07Z</time>
      </trkpt>
      <trkpt lat="44.01979" lon="5.97814">
        <ele>651.65</ele>
        <time>2014-05-14T12:36:23Z</time>
      </trkpt>
      <trkpt lat="44.01973" lon="5.97807">
        <ele>651.73</ele>
        <time>2014-05-14T12:36:30Z</time>
      </trkpt>
      <trkpt lat="44.01962" lon="5.97786">
        <ele>652.49</ele>
        <time>2014-05-14T12:36:47Z</time>
      </trkpt>
      <trkpt lat="44.01952" lon="5.97768">
        <ele>652.43</ele>
        <time>2014-05-14T12:37:03Z</time>
      </trkpt>
      <trkpt lat="44.01943" lon="5.97751">
        <ele>652.93</ele>
        <time>2014-05-14T12:37:20Z</time>
      </trkpt>
      <trkpt lat="44.01934" lon="5.97733">
        <ele>653.34</ele>
        <time>2014-05-14T12:37:38Z</time>
      </trkpt>
      <trkpt lat="44.01925" lon="5.97713">
        <ele>653.99</ele>
        <time>2014-05-14T12:37:55Z</time>
      </trkpt>
      <trkpt lat="44.01916" lon="5.97687">
        <ele>654.57</ele>
        <time>2014-05-14T12:38:13Z</time>
      </trkpt>
      <trkpt lat="44.0191" lon="5.97669">
        <ele>655.77</ele>
        <time>2014-05-14T12:38:29Z</time>
      </trkpt>
      <trkpt lat="44.01907" lon="5.97641">
        <ele>657.2</ele>
        <time>2014-05-14T12:38:53Z</time>
      </trkpt>
      <trkpt lat="44.01905" lon="5.97613">
        <ele>658.37</ele>
        <time>2014-05-14T12:39:17Z</time>
      </trkpt>
      <trkpt lat="44.01906" lon="5.97589">
        <ele>659.02</ele>
        <time>2014-05-14T12:39:39Z</time>
      </trkpt>
      <trkpt lat="44.01908" lon="5.97568">
        <ele>656.57</ele>
        <time>2014-05-14T12:40:00Z</time>
      </trkpt>
      <trkpt lat="44.01904" lon="5.97546">
        <ele>653.48</ele>
        <time>2014-05-14T12:40:20Z</time>
      </trkpt>
      <trkpt lat="44.01904" lon="5.97536">
        <ele>652.46</ele>
        <time>2014-05-14T12:40:28Z</time>
      </trkpt>
      <trkpt lat="44.01907" lon="5.97513">
        <ele>649.49</ele>
        <time>2014-05-14T12:40:48Z</time>
      </trkpt>
      <trkpt lat="44.01909" lon="5.97497">
        <ele>647.89</ele>
        <time>2014-05-14T12:41:03Z</time>
      </trkpt>
      <trkpt lat="44.01911" lon="5.97476">
        <ele>644.76</ele>
        <time>2014-05-14T12:41:23Z</time>
      </trkpt>
      <trkpt lat="44.01918" lon="5.9745">
        <ele>643.63</ele>
        <time>2014-05-14T12:41:43Z</time>
      </trkpt>
      <trkpt lat="44.01927" lon="5.97433">
        <ele>641.33</ele>
        <time>2014-05-14T12:42:00Z</time>
      </trkpt>
      <trkpt lat="44.01942" lon="5.97421">
        <ele>641.04</ele>
        <time>2014-05-14T12:42:19Z</time>
      </trkpt>
      <trkpt lat="44.0195" lon="5.97417">
        <ele>637.84</ele>
        <time>2014-05-14T12:42:31Z</time>
      </trkpt>
      <trkpt lat="44.01957" lon="5.97406">
        <ele>635.98</ele>
        <time>2014-05-14T12:42:45Z</time>
      </trkpt>
      <trkpt lat="44.01972" lon="5.97394">
        <ele>633.44</ele>
        <time>2014-05-14T12:43:02Z</time>
      </trkpt>
      <trkpt lat="44.01982" lon="5.97385">
        <ele>632.12</ele>
        <time>2014-05-14T12:43:18Z</time>
      </trkpt>
      <trkpt lat="44.01994" lon="5.97377">
        <ele>630.55</ele>
        <time>2014-05-14T12:43:35Z</time>
      </trkpt>
      <trkpt lat="44.01999" lon="5.97371">
        <ele>629.47</ele>
        <time>2014-05-14T12:44:08Z</time>
      </trkpt>
      <trkpt lat="44.01996" lon="5.9737">
        <ele>628.44</ele>
        <time>2014-05-14T12:44:59Z</time>
      </trkpt>
      <trkpt lat="44.02008" lon="5.97355">
        <ele>628.11</ele>
        <time>2014-05-14T12:45:23Z</time>
      </trkpt>
      <trkpt lat="44.02024" lon="5.97338">
        <ele>626.93</ele>
        <time>2014-05-14T12:45:46Z</time>
      </trkpt>
      <trkpt lat="44.02036" lon="5.97323">
        <ele>624.7</ele>
        <time>2014-05-14T12:46:03Z</time>
      </trkpt>
      <trkpt lat="44.02049" lon="5.97302">
        <ele>623.05</ele>
        <time>2014-05-14T12:46:23Z</time>
      </trkpt>
      <trkpt lat="44.02063" lon="5.97291">
        <ele>620.3</ele>
        <time>2014-05-14T12:46:41Z</time>
      </trkpt>
      <trkpt lat="44.02072" lon="5.97287">
        <ele>617.18</ele>
        <time>2014-05-14T12:46:53Z</time>
      </trkpt>
      <trkpt lat="44.02084" lon="5.97283">
        <ele>614.25</ele>
        <time>2014-05-14T12:47:11Z</time>
      </trkpt>
      <trkpt lat="44.02096" lon="5.9728">
        <ele>611.82</ele>
        <time>2014-05-14T12:47:28Z</time>
      </trkpt>
      <trkpt lat="44.02106" lon="5.97277">
        <ele>608.66</ele>
        <time>2014-05-14T12:47:43Z</time>
      </trkpt>
      <trkpt lat="44.02117" lon="5.97275">
        <ele>605.72</ele>
        <time>2014-05-14T12:48:01Z</time>
      </trkpt>
      <trkpt lat="44.02136" lon="5.97274">
        <ele>602.93</ele>
        <time>2014-05-14T12:48:24Z</time>
      </trkpt>
      <trkpt lat="44.02148" lon="5.97263">
        <ele>599.83</ele>
        <time>2014-05-14T12:48:40Z</time>
      </trkpt>
      <trkpt lat="44.02162" lon="5.97257">
        <ele>597.55</ele>
        <time>2014-05-14T12:48:59Z</time>
      </trkpt>
      <trkpt lat="44.02171" lon="5.97251">
        <ele>594.64</ele>
        <time>2014-05-14T12:49:13Z</time>
      </trkpt>
      <trkpt lat="44.02173" lon="5.9725">
        <ele>594</ele>
        <time>2014-05-14T12:49:16Z</time>
      </trkpt>
      <trkpt lat="44.02184" lon="5.97242">
        <ele>592.6</ele>
        <time>2014-05-14T12:49:33Z</time>
      </trkpt>
      <trkpt lat="44.02193" lon="5.97243">
        <ele>591.02</ele>
        <time>2014-05-14T12:49:47Z</time>
      </trkpt>
      <trkpt lat="44.02202" lon="5.97243">
        <ele>589.07</ele>
        <time>2014-05-14T12:50:04Z</time>
      </trkpt>
      <trkpt lat="44.02209" lon="5.97243">
        <ele>585.62</ele>
        <time>2014-05-14T12:50:16Z</time>
      </trkpt>
      <trkpt lat="44.02218" lon="5.97244">
        <ele>583.54</ele>
        <time>2014-05-14T12:50:34Z</time>
      </trkpt>
      <trkpt lat="44.02224" lon="5.9724">
        <ele>580.9</ele>
        <time>2014-05-14T12:50:51Z</time>
      </trkpt>
      <trkpt lat="44.02229" lon="5.97225">
        <ele>578.37</ele>
        <time>2014-05-14T12:51:12Z</time>
      </trkpt>
      <trkpt lat="44.02235" lon="5.9722">
        <ele>575.11</ele>
        <time>2014-05-14T12:51:33Z</time>
      </trkpt>
      <trkpt lat="44.02242" lon="5.97213">
        <ele>573.03</ele>
        <time>2014-05-14T12:51:56Z</time>
      </trkpt>
      <trkpt lat="44.02248" lon="5.97211">
        <ele>569.84</ele>
        <time>2014-05-14T12:52:10Z</time>
      </trkpt>
      <trkpt lat="44.02252" lon="5.97211">
        <ele>567.46</ele>
        <time>2014-05-14T12:52:25Z</time>
      </trkpt>
      <trkpt lat="44.02256" lon="5.97208">
        <ele>564.37</ele>
        <time>2014-05-14T12:52:44Z</time>
      </trkpt>
      <trkpt lat="44.0226" lon="5.97206">
        <ele>563.24</ele>
        <time>2014-05-14T12:53:05Z</time>
      </trkpt>
      <trkpt lat="44.02266" lon="5.97207">
        <ele>561.81</ele>
        <time>2014-05-14T12:53:22Z</time>
      </trkpt>
      <trkpt lat="44.02268" lon="5.97203">
        <ele>558.74</ele>
        <time>2014-05-14T12:53:35Z</time>
      </trkpt>
      <trkpt lat="44.02275" lon="5.97199">
        <ele>556.74</ele>
        <time>2014-05-14T12:53:55Z</time>
      </trkpt>
      <trkpt lat="44.0228" lon="5.97199">
        <ele>555.08</ele>
        <time>2014-05-14T12:54:14Z</time>
      </trkpt>
      <trkpt lat="44.02289" lon="5.972">
        <ele>553.45</ele>
        <time>2014-05-14T12:54:33Z</time>
      </trkpt>
      <trkpt lat="44.0229" lon="5.97195">
        <ele>551.62</ele>
        <time>2014-05-14T12:54:52Z</time>
      </trkpt>
      <trkpt lat="44.02295" lon="5.97192">
        <ele>548.4</ele>
        <time>2014-05-14T12:55:04Z</time>
      </trkpt>
      <trkpt lat="44.02302" lon="5.97187">
        <ele>546.38</ele>
        <time>2014-05-14T12:55:21Z</time>
      </trkpt>
      <trkpt lat="44.02305" lon="5.97178">
        <ele>543.26</ele>
        <time>2014-05-14T12:55:37Z</time>
      </trkpt>
      <trkpt lat="44.02306" lon="5.97166">
        <ele>541.89</ele>
        <time>2014-05-14T12:55:54Z</time>
      </trkpt>
      <trkpt lat="44.0231" lon="5.97158">
        <ele>538.78</ele>
        <time>2014-05-14T12:56:10Z</time>
      </trkpt>
      <trkpt lat="44.02316" lon="5.97148">
        <ele>536.87</ele>
        <time>2014-05-14T12:56:26Z</time>
      </trkpt>
      <trkpt lat="44.02319" lon="5.97143">
        <ele>535.8</ele>
        <time>2014-05-14T12:56:41Z</time>
      </trkpt>
      <trkpt lat="44.02323" lon="5.97137">
        <ele>533.41</ele>
        <time>2014-05-14T12:56:58Z</time>
      </trkpt>
      <trkpt lat="44.02325" lon="5.97137">
        <ele>533.17</ele>
        <time>2014-05-14T12:57:27Z</time>
      </trkpt>
      <trkpt lat="44.02325" lon="5.97134">
        <ele>532.87</ele>
        <time>2014-05-14T12:58:00Z</time>
      </trkpt>
      <trkpt lat="44.02329" lon="5.97132">
        <ele>531.79</ele>
        <time>2014-05-14T12:58:37Z</time>
      </trkpt>
      <trkpt lat="44.02338" lon="5.9713">
        <ele>529.83</ele>
        <time>2014-05-14T12:58:55Z</time>
      </trkpt>
      <trkpt lat="44.02341" lon="5.97115">
        <ele>527.54</ele>
        <time>2014-05-14T12:59:14Z</time>
      </trkpt>
      <trkpt lat="44.02351" lon="5.97102">
        <ele>524.71</ele>
        <time>2014-05-14T12:59:33Z</time>
      </trkpt>
      <trkpt lat="44.02358" lon="5.9709">
        <ele>521.85</ele>
        <time>2014-05-14T12:59:49Z</time>
      </trkpt>
      <trkpt lat="44.02363" lon="5.97086">
        <ele>521.38</ele>
        <time>2014-05-14T12:59:55Z</time>
      </trkpt>
      <trkpt lat="44.02365" lon="5.97069">
        <ele>520.5</ele>
        <time>2014-05-14T13:00:10Z</time>
      </trkpt>
      <trkpt lat="44.02369" lon="5.97061">
        <ele>518.45</ele>
        <time>2014-05-14T13:00:27Z</time>
      </trkpt>
      <trkpt lat="44.02372" lon="5.97049">
        <ele>517.94</ele>
        <time>2014-05-14T13:00:40Z</time>
      </trkpt>
      <trkpt lat="44.02376" lon="5.97032">
        <ele>514.76</ele>
        <time>2014-05-14T13:00:56Z</time>
      </trkpt>
      <trkpt lat="44.0238" lon="5.97021">
        <ele>511.69</ele>
        <time>2014-05-14T13:01:09Z</time>
      </trkpt>
      <trkpt lat="44.02378" lon="5.97008">
        <ele>509.11</ele>
        <time>2014-05-14T13:01:23Z</time>
      </trkpt>
      <trkpt lat="44.02382" lon="5.96998">
        <ele>506.33</ele>
        <time>2014-05-14T13:01:40Z</time>
      </trkpt>
      <trkpt lat="44.02384" lon="5.96986">
        <ele>504.65</ele>
        <time>2014-05-14T13:01:58Z</time>
      </trkpt>
      <trkpt lat="44.02389" lon="5.96977">
        <ele>501.59</ele>
        <time>2014-05-14T13:02:17Z</time>
      </trkpt>
      <trkpt lat="44.02386" lon="5.96962">
        <ele>498.63</ele>
        <time>2014-05-14T13:02:36Z</time>
      </trkpt>
      <trkpt lat="44.024" lon="5.96959">
        <ele>495.48</ele>
        <time>2014-05-14T13:02:55Z</time>
      </trkpt>
      <trkpt lat="44.02401" lon="5.96949">
        <ele>492.78</ele>
        <time>2014-05-14T13:03:12Z</time>
      </trkpt>
      <trkpt lat="44.02406" lon="5.96942">
        <ele>489.74</ele>
        <time>2014-05-14T13:03:29Z</time>
      </trkpt>
      <trkpt lat="44.02409" lon="5.96932">
        <ele>487.79</ele>
        <time>2014-05-14T13:03:49Z</time>
      </trkpt>
      <trkpt lat="44.02411" lon="5.96923">
        <ele>485.71</ele>
        <time>2014-05-14T13:04:07Z</time>
      </trkpt>
      <trkpt lat="44.02418" lon="5.96912">
        <ele>482.58</ele>
        <time>2014-05-14T13:04:27Z</time>
      </trkpt>
      <trkpt lat="44.0243" lon="5.96912">
        <ele>479.55</ele>
        <time>2014-05-14T13:04:46Z</time>
      </trkpt>
      <trkpt lat="44.02436" lon="5.96907">
        <ele>476.92</ele>
        <time>2014-05-14T13:05:03Z</time>
      </trkpt>
      <trkpt lat="44.02445" lon="5.96907">
        <ele>474.41</ele>
        <time>2014-05-14T13:05:20Z</time>
      </trkpt>
      <trkpt lat="44.02453" lon="5.96929">
        <ele>472.33</ele>
        <time>2014-05-14T13:05:39Z</time>
      </trkpt>
      <trkpt lat="44.02453" lon="5.96932">
        <ele>470.1</ele>
        <time>2014-05-14T13:05:55Z</time>
      </trkpt>
      <trkpt lat="44.02453" lon="5.96933">
        <ele>469.57</ele>
        <time>2014-05-14T13:06:18Z</time>
      </trkpt>
      <trkpt lat="44.02453" lon="5.96936">
        <ele>470.86</ele>
        <time>2014-05-14T13:06:57Z</time>
      </trkpt>
      <trkpt lat="44.02454" lon="5.96939">
        <ele>470.83</ele>
        <time>2014-05-14T13:07:24Z</time>
      </trkpt>
      <trkpt lat="44.02457" lon="5.96942">
        <ele>469.93</ele>
        <time>2014-05-14T13:07:59Z</time>
      </trkpt>
      <trkpt lat="44.02458" lon="5.96971">
        <ele>467.67</ele>
        <time>2014-05-14T13:08:23Z</time>
      </trkpt>
      <trkpt lat="44.02461" lon="5.96986">
        <ele>464.38</ele>
        <time>2014-05-14T13:08:35Z</time>
      </trkpt>
      <trkpt lat="44.02462" lon="5.97009">
        <ele>461.32</ele>
        <time>2014-05-14T13:08:53Z</time>
      </trkpt>
      <trkpt lat="44.02461" lon="5.97038">
        <ele>460.12</ele>
        <time>2014-05-14T13:09:17Z</time>
      </trkpt>
      <trkpt lat="44.0246" lon="5.97072">
        <ele>458.85</ele>
        <time>2014-05-14T13:09:42Z</time>
      </trkpt>
      <trkpt lat="44.02457" lon="5.971">
        <ele>457.87</ele>
        <time>2014-05-14T13:10:03Z</time>
      </trkpt>
      <trkpt lat="44.02453" lon="5.97121">
        <ele>456.01</ele>
        <time>2014-05-14T13:10:19Z</time>
      </trkpt>
      <trkpt lat="44.02456" lon="5.97136">
        <ele>453.74</ele>
        <time>2014-05-14T13:10:30Z</time>
      </trkpt>
      <trkpt lat="44.02463" lon="5.97135">
        <ele>453.59</ele>
        <time>2014-05-14T13:10:39Z</time>
      </trkpt>
      <trkpt lat="44.02469" lon="5.97127">
        <ele>453.4</ele>
        <time>2014-05-14T13:10:50Z</time>
      </trkpt>
      <trkpt lat="44.02478" lon="5.97108">
        <ele>451.84</ele>
        <time>2014-05-14T13:11:06Z</time>
      </trkpt>
      <trkpt lat="44.0248" lon="5.97101">
        <ele>451.34</ele>
        <time>2014-05-14T13:11:10Z</time>
      </trkpt>
      <trkpt lat="44.02485" lon="5.97089">
        <ele>448.05</ele>
        <time>2014-05-14T13:11:20Z</time>
      </trkpt>
      <trkpt lat="44.02494" lon="5.97061">
        <ele>446.24</ele>
        <time>2014-05-14T13:11:44Z</time>
      </trkpt>
      <trkpt lat="44.025" lon="5.97032">
        <ele>443.42</ele>
        <time>2014-05-14T13:12:07Z</time>
      </trkpt>
      <trkpt lat="44.0251" lon="5.96998">
        <ele>440.11</ele>
        <time>2014-05-14T13:12:29Z</time>
      </trkpt>
      <trkpt lat="44.02524" lon="5.96982">
        <ele>437.48</ele>
        <time>2014-05-14T13:12:46Z</time>
      </trkpt>
      <trkpt lat="44.02529" lon="5.96984">
        <ele>437.64</ele>
        <time>2014-05-14T13:12:51Z</time>
      </trkpt>
      <trkpt lat="44.02533" lon="5.96986">
        <ele>438.01</ele>
        <time>2014-05-14T13:12:55Z</time>
      </trkpt>
      <trkpt lat="44.02553" lon="5.96978">
        <ele>439.69</ele>
        <time>2014-05-14T13:13:16Z</time>
      </trkpt>
      <trkpt lat="44.02576" lon="5.96959">
        <ele>439.91</ele>
        <time>2014-05-14T13:13:42Z</time>
      </trkpt>
      <trkpt lat="44.02595" lon="5.96972">
        <ele>439.24</ele>
        <time>2014-05-14T13:14:01Z</time>
      </trkpt>
      <trkpt lat="44.02597" lon="5.96977">
        <ele>437.5</ele>
        <time>2014-05-14T13:14:05Z</time>
      </trkpt>
      <trkpt lat="44.02609" lon="5.97002">
        <ele>434.13</ele>
        <time>2014-05-14T13:14:24Z</time>
      </trkpt>
      <trkpt lat="44.02627" lon="5.97024">
        <ele>431.08</ele>
        <time>2014-05-14T13:14:48Z</time>
      </trkpt>
      <trkpt lat="44.02645" lon="5.97049">
        <ele>427.99</ele>
        <time>2014-05-14T13:15:11Z</time>
      </trkpt>
      <trkpt lat="44.02659" lon="5.97072">
        <ele>424.93</ele>
        <time>2014-05-14T13:15:31Z</time>
      </trkpt>
      <trkpt lat="44.02669" lon="5.97089">
        <ele>421.57</ele>
        <time>2014-05-14T13:15:45Z</time>
      </trkpt>
      <trkpt lat="44.02684" lon="5.97115">
        <ele>418.65</ele>
        <time>2014-05-14T13:16:06Z</time>
      </trkpt>
      <trkpt lat="44.02694" lon="5.97132">
        <ele>415.62</ele>
        <time>2014-05-14T13:16:22Z</time>
      </trkpt>
      <trkpt lat="44.02706" lon="5.97151">
        <ele>413.38</ele>
        <time>2014-05-14T13:16:43Z</time>
      </trkpt>
      <trkpt lat="44.02707" lon="5.97151">
        <ele>413.32</ele>
        <time>2014-05-14T13:16:45Z</time>
      </trkpt>
      <trkpt lat="44.02729" lon="5.97176">
        <ele>410.66</ele>
        <time>2014-05-14T13:17:10Z</time>
      </trkpt>
      <trkpt lat="44.02733" lon="5.97182">
        <ele>410.86</ele>
        <time>2014-05-14T13:17:15Z</time>
      </trkpt>
      <trkpt lat="44.02751" lon="5.97221">
        <ele>409.84</ele>
        <time>2014-05-14T13:17:44Z</time>
      </trkpt>
      <trkpt lat="44.02756" lon="5.97253">
        <ele>409.54</ele>
        <time>2014-05-14T13:18:06Z</time>
      </trkpt>
      <trkpt lat="44.02757" lon="5.97257">
        <ele>409.44</ele>
        <time>2014-05-14T13:18:09Z</time>
      </trkpt>
      <trkpt lat="44.02758" lon="5.97284">
        <ele>409.78</ele>
        <time>2014-05-14T13:18:27Z</time>
      </trkpt>
      <trkpt lat="44.02761" lon="5.97292">
        <ele>409.33</ele>
        <time>2014-05-14T13:18:33Z</time>
      </trkpt>
      <trkpt lat="44.02766" lon="5.97314">
        <ele>409.19</ele>
        <time>2014-05-14T13:18:49Z</time>
      </trkpt>
      <trkpt lat="44.02767" lon="5.97317">
        <ele>409.15</ele>
        <time>2014-05-14T13:18:51Z</time>
      </trkpt>
      <trkpt lat="44.02769" lon="5.97325">
        <ele>409.59</ele>
        <time>2014-05-14T13:18:56Z</time>
      </trkpt>
      <trkpt lat="44.02772" lon="5.97337">
        <ele>409.92</ele>
        <time>2014-05-14T13:19:07Z</time>
      </trkpt>
      <trkpt lat="44.02773" lon="5.97339">
        <ele>410.15</ele>
        <time>2014-05-14T13:19:09Z</time>
      </trkpt>
      <trkpt lat="44.02774" lon="5.97346">
        <ele>410.43</ele>
        <time>2014-05-14T13:19:14Z</time>
      </trkpt>
      <trkpt lat="44.02783" lon="5.97384">
        <ele>410.33</ele>
        <time>2014-05-14T13:19:40Z</time>
      </trkpt>
      <trkpt lat="44.02793" lon="5.97407">
        <ele>408.46</ele>
        <time>2014-05-14T13:19:57Z</time>
      </trkpt>
      <trkpt lat="44.02808" lon="5.9743">
        <ele>408.74</ele>
        <time>2014-05-14T13:20:17Z</time>
      </trkpt>
      <trkpt lat="44.02809" lon="5.97437">
        <ele>408.31</ele>
        <time>2014-05-14T13:20:21Z</time>
      </trkpt>
      <trkpt lat="44.0281" lon="5.97441">
        <ele>407.96</ele>
        <time>2014-05-14T13:20:24Z</time>
      </trkpt>
      <trkpt lat="44.02825" lon="5.97459">
        <ele>407.42</ele>
        <time>2014-05-14T13:20:42Z</time>
      </trkpt>
      <trkpt lat="44.0283" lon="5.97469">
        <ele>408.24</ele>
        <time>2014-05-14T13:20:50Z</time>
      </trkpt>
      <trkpt lat="44.02835" lon="5.97479">
        <ele>407.95</ele>
        <time>2014-05-14T13:20:58Z</time>
      </trkpt>
      <trkpt lat="44.02844" lon="5.97503">
        <ele>407.85</ele>
        <time>2014-05-14T13:21:17Z</time>
      </trkpt>
      <trkpt lat="44.02848" lon="5.97516">
        <ele>409.46</ele>
        <time>2014-05-14T13:21:30Z</time>
      </trkpt>
      <trkpt lat="44.02856" lon="5.97528">
        <ele>411.06</ele>
        <time>2014-05-14T13:21:44Z</time>
      </trkpt>
      <trkpt lat="44.02863" lon="5.97534">
        <ele>412.74</ele>
        <time>2014-05-14T13:22:03Z</time>
      </trkpt>
      <trkpt lat="44.02862" lon="5.97541">
        <ele>412.92</ele>
        <time>2014-05-14T13:22:11Z</time>
      </trkpt>
      <trkpt lat="44.0288" lon="5.97544">
        <ele>413.25</ele>
        <time>2014-05-14T13:22:38Z</time>
      </trkpt>
      <trkpt lat="44.02892" lon="5.97537">
        <ele>413.32</ele>
        <time>2014-05-14T13:22:48Z</time>
      </trkpt>
      <trkpt lat="44.02904" lon="5.97535">
        <ele>414.23</ele>
        <time>2014-05-14T13:23:01Z</time>
      </trkpt>
      <trkpt lat="44.02915" lon="5.9755">
        <ele>415.71</ele>
        <time>2014-05-14T13:23:20Z</time>
      </trkpt>
      <trkpt lat="44.02915" lon="5.9755">
        <ele>416.15</ele>
        <time>2014-05-14T13:23:41Z</time>
      </trkpt>
      <trkpt lat="44.02918" lon="5.97549">
        <ele>416.41</ele>
        <time>2014-05-14T13:23:57Z</time>
      </trkpt>
      <trkpt lat="44.0292" lon="5.97548">
        <ele>404.72</ele>
        <time>2014-05-14T13:24:09Z</time>
      </trkpt>
    </trkseg>
  </trk>
</gpx>